<?xml version="1.0" encoding="UTF-8" standalone="no" ?>
<gpx xmlns="http://www.topografix.com/GPX/1/1" xmlns:xsi="http://www.w3.org/2001/XMLSchema-instance" xsi:schemaLocation="http://www.topografix.com/GPX/1/1 http://www.topografix.com/GPX/1/1/gpx.xsd" version="1.1" creator="VisuGPX - https://www.visugpx.com">
  <metadata>
    <name>RECO AMPUS NOTRE DAME DE SPELUQUE</name>
    <desc><![CDATA[Randonnée à Ampus en passant par le Ratton (visite d'un dolmen), puis le Turquet et Mourjai avec sa ferme et ses moutons, ses chèvres. Arrivée à La Treille où nous trouvons les fameux fours à bois. Nous arrivons ensuite à la chapelle notre Dame de Speluque. 
Nous passons par la Rouvière et Valsegure puis nous descendons la rue Rompe Cul pour rejoindre le parking au dessous de l'auberge des réaconniers.]]></desc>
  </metadata>
  <trk>
    <name><![CDATA[Tracé actuel: 29 AVR 2016 08:26]]></name>
    <trkseg>
      <trkpt lat="43.60579" lon="6.3825">
        <ele>523.58</ele>
        <time>2016-04-29T06:26:27Z</time>
      </trkpt>
      <trkpt lat="43.6058" lon="6.3825">
        <ele>523.58</ele>
        <time>2016-04-29T06:26:28Z</time>
      </trkpt>
      <trkpt lat="43.6058" lon="6.38253">
        <ele>526.46</ele>
        <time>2016-04-29T06:26:36Z</time>
      </trkpt>
      <trkpt lat="43.60581" lon="6.38254">
        <ele>530.3</ele>
        <time>2016-04-29T06:26:39Z</time>
      </trkpt>
      <trkpt lat="43.60581" lon="6.38254">
        <ele>534.15</ele>
        <time>2016-04-29T06:26:42Z</time>
      </trkpt>
      <trkpt lat="43.6058" lon="6.38255">
        <ele>537.51</ele>
        <time>2016-04-29T06:26:45Z</time>
      </trkpt>
      <trkpt lat="43.6058" lon="6.38255">
        <ele>541.36</ele>
        <time>2016-04-29T06:26:48Z</time>
      </trkpt>
      <trkpt lat="43.6058" lon="6.38256">
        <ele>541.36</ele>
        <time>2016-04-29T06:26:49Z</time>
      </trkpt>
      <trkpt lat="43.6058" lon="6.38257">
        <ele>546.65</ele>
        <time>2016-04-29T06:26:51Z</time>
      </trkpt>
      <trkpt lat="43.6058" lon="6.38257">
        <ele>544.72</ele>
        <time>2016-04-29T06:26:52Z</time>
      </trkpt>
      <trkpt lat="43.60579" lon="6.38257">
        <ele>547.61</ele>
        <time>2016-04-29T06:26:56Z</time>
      </trkpt>
      <trkpt lat="43.60578" lon="6.38257">
        <ele>551.93</ele>
        <time>2016-04-29T06:27:00Z</time>
      </trkpt>
      <trkpt lat="43.60578" lon="6.38257">
        <ele>551.45</ele>
        <time>2016-04-29T06:27:01Z</time>
      </trkpt>
      <trkpt lat="43.60577" lon="6.38257">
        <ele>552.41</ele>
        <time>2016-04-29T06:27:04Z</time>
      </trkpt>
      <trkpt lat="43.60576" lon="6.38256">
        <ele>556.26</ele>
        <time>2016-04-29T06:27:08Z</time>
      </trkpt>
      <trkpt lat="43.60577" lon="6.38255">
        <ele>558.18</ele>
        <time>2016-04-29T06:27:14Z</time>
      </trkpt>
      <trkpt lat="43.60577" lon="6.38257">
        <ele>562.03</ele>
        <time>2016-04-29T06:27:18Z</time>
      </trkpt>
      <trkpt lat="43.60577" lon="6.38257">
        <ele>561.55</ele>
        <time>2016-04-29T06:27:19Z</time>
      </trkpt>
      <trkpt lat="43.60577" lon="6.38253">
        <ele>564.43</ele>
        <time>2016-04-29T06:27:39Z</time>
      </trkpt>
      <trkpt lat="43.60577" lon="6.38254">
        <ele>566.83</ele>
        <time>2016-04-29T06:27:53Z</time>
      </trkpt>
      <trkpt lat="43.60576" lon="6.38253">
        <ele>566.83</ele>
        <time>2016-04-29T06:27:57Z</time>
      </trkpt>
      <trkpt lat="43.6058" lon="6.3825">
        <ele>567.32</ele>
        <time>2016-04-29T06:28:00Z</time>
      </trkpt>
      <trkpt lat="43.60585" lon="6.38255">
        <ele>569.24</ele>
        <time>2016-04-29T06:28:12Z</time>
      </trkpt>
      <trkpt lat="43.60584" lon="6.38258">
        <ele>570.68</ele>
        <time>2016-04-29T06:28:15Z</time>
      </trkpt>
      <trkpt lat="43.60583" lon="6.38265">
        <ele>573.08</ele>
        <time>2016-04-29T06:28:22Z</time>
      </trkpt>
      <trkpt lat="43.60588" lon="6.38264">
        <ele>574.53</ele>
        <time>2016-04-29T06:28:35Z</time>
      </trkpt>
      <trkpt lat="43.60602" lon="6.38265">
        <ele>576.45</ele>
        <time>2016-04-29T06:28:48Z</time>
      </trkpt>
      <trkpt lat="43.60606" lon="6.38268">
        <ele>576.93</ele>
        <time>2016-04-29T06:28:52Z</time>
      </trkpt>
      <trkpt lat="43.60609" lon="6.38271">
        <ele>577.41</ele>
        <time>2016-04-29T06:28:55Z</time>
      </trkpt>
      <trkpt lat="43.60619" lon="6.38279">
        <ele>578.37</ele>
        <time>2016-04-29T06:29:04Z</time>
      </trkpt>
      <trkpt lat="43.60623" lon="6.38279">
        <ele>578.37</ele>
        <time>2016-04-29T06:29:06Z</time>
      </trkpt>
      <trkpt lat="43.60649" lon="6.38264">
        <ele>579.33</ele>
        <time>2016-04-29T06:29:20Z</time>
      </trkpt>
      <trkpt lat="43.60655" lon="6.38264">
        <ele>579.81</ele>
        <time>2016-04-29T06:29:24Z</time>
      </trkpt>
      <trkpt lat="43.60671" lon="6.38282">
        <ele>582.22</ele>
        <time>2016-04-29T06:29:42Z</time>
      </trkpt>
      <trkpt lat="43.60684" lon="6.38301">
        <ele>583.66</ele>
        <time>2016-04-29T06:29:55Z</time>
      </trkpt>
      <trkpt lat="43.60693" lon="6.38311">
        <ele>584.62</ele>
        <time>2016-04-29T06:30:03Z</time>
      </trkpt>
      <trkpt lat="43.60696" lon="6.38316">
        <ele>585.1</ele>
        <time>2016-04-29T06:30:17Z</time>
      </trkpt>
      <trkpt lat="43.60702" lon="6.3832">
        <ele>584.62</ele>
        <time>2016-04-29T06:30:30Z</time>
      </trkpt>
      <trkpt lat="43.60712" lon="6.38344">
        <ele>583.18</ele>
        <time>2016-04-29T06:30:46Z</time>
      </trkpt>
      <trkpt lat="43.60712" lon="6.38346">
        <ele>585.1</ele>
        <time>2016-04-29T06:30:47Z</time>
      </trkpt>
      <trkpt lat="43.60721" lon="6.38361">
        <ele>582.22</ele>
        <time>2016-04-29T06:30:59Z</time>
      </trkpt>
      <trkpt lat="43.60719" lon="6.38375">
        <ele>581.73</ele>
        <time>2016-04-29T06:31:13Z</time>
      </trkpt>
      <trkpt lat="43.60719" lon="6.38373">
        <ele>582.22</ele>
        <time>2016-04-29T06:31:23Z</time>
      </trkpt>
      <trkpt lat="43.60726" lon="6.38366">
        <ele>581.73</ele>
        <time>2016-04-29T06:31:37Z</time>
      </trkpt>
      <trkpt lat="43.60729" lon="6.38361">
        <ele>581.73</ele>
        <time>2016-04-29T06:31:42Z</time>
      </trkpt>
      <trkpt lat="43.6073" lon="6.3836">
        <ele>581.25</ele>
        <time>2016-04-29T06:31:43Z</time>
      </trkpt>
      <trkpt lat="43.60731" lon="6.38355">
        <ele>581.25</ele>
        <time>2016-04-29T06:31:47Z</time>
      </trkpt>
      <trkpt lat="43.60736" lon="6.38354">
        <ele>580.29</ele>
        <time>2016-04-29T06:31:51Z</time>
      </trkpt>
      <trkpt lat="43.60739" lon="6.38357">
        <ele>579.81</ele>
        <time>2016-04-29T06:31:55Z</time>
      </trkpt>
      <trkpt lat="43.60743" lon="6.38357">
        <ele>578.37</ele>
        <time>2016-04-29T06:31:58Z</time>
      </trkpt>
      <trkpt lat="43.60753" lon="6.38359">
        <ele>577.89</ele>
        <time>2016-04-29T06:32:06Z</time>
      </trkpt>
      <trkpt lat="43.60759" lon="6.38357">
        <ele>576.93</ele>
        <time>2016-04-29T06:32:10Z</time>
      </trkpt>
      <trkpt lat="43.60763" lon="6.38358">
        <ele>576.45</ele>
        <time>2016-04-29T06:32:15Z</time>
      </trkpt>
      <trkpt lat="43.60765" lon="6.38358">
        <ele>575.49</ele>
        <time>2016-04-29T06:32:17Z</time>
      </trkpt>
      <trkpt lat="43.60768" lon="6.38358">
        <ele>575.01</ele>
        <time>2016-04-29T06:32:20Z</time>
      </trkpt>
      <trkpt lat="43.60774" lon="6.38358">
        <ele>573.08</ele>
        <time>2016-04-29T06:32:24Z</time>
      </trkpt>
      <trkpt lat="43.60778" lon="6.38358">
        <ele>573.08</ele>
        <time>2016-04-29T06:32:27Z</time>
      </trkpt>
      <trkpt lat="43.60783" lon="6.38357">
        <ele>573.08</ele>
        <time>2016-04-29T06:32:31Z</time>
      </trkpt>
      <trkpt lat="43.60786" lon="6.38357">
        <ele>573.08</ele>
        <time>2016-04-29T06:32:33Z</time>
      </trkpt>
      <trkpt lat="43.60789" lon="6.38357">
        <ele>572.6</ele>
        <time>2016-04-29T06:32:36Z</time>
      </trkpt>
      <trkpt lat="43.60798" lon="6.38356">
        <ele>571.64</ele>
        <time>2016-04-29T06:32:43Z</time>
      </trkpt>
      <trkpt lat="43.60808" lon="6.38357">
        <ele>569.72</ele>
        <time>2016-04-29T06:32:53Z</time>
      </trkpt>
      <trkpt lat="43.60811" lon="6.38357">
        <ele>569.72</ele>
        <time>2016-04-29T06:32:55Z</time>
      </trkpt>
      <trkpt lat="43.60819" lon="6.38357">
        <ele>568.28</ele>
        <time>2016-04-29T06:33:01Z</time>
      </trkpt>
      <trkpt lat="43.60828" lon="6.38358">
        <ele>567.32</ele>
        <time>2016-04-29T06:33:10Z</time>
      </trkpt>
      <trkpt lat="43.60843" lon="6.38363">
        <ele>565.39</ele>
        <time>2016-04-29T06:33:22Z</time>
      </trkpt>
      <trkpt lat="43.60847" lon="6.38368">
        <ele>564.43</ele>
        <time>2016-04-29T06:33:28Z</time>
      </trkpt>
      <trkpt lat="43.60851" lon="6.38369">
        <ele>563.95</ele>
        <time>2016-04-29T06:33:31Z</time>
      </trkpt>
      <trkpt lat="43.60852" lon="6.38369">
        <ele>563.47</ele>
        <time>2016-04-29T06:33:32Z</time>
      </trkpt>
      <trkpt lat="43.60855" lon="6.38368">
        <ele>563.47</ele>
        <time>2016-04-29T06:33:35Z</time>
      </trkpt>
      <trkpt lat="43.6086" lon="6.38371">
        <ele>562.51</ele>
        <time>2016-04-29T06:33:39Z</time>
      </trkpt>
      <trkpt lat="43.60865" lon="6.38371">
        <ele>562.03</ele>
        <time>2016-04-29T06:33:42Z</time>
      </trkpt>
      <trkpt lat="43.60866" lon="6.38372">
        <ele>562.03</ele>
        <time>2016-04-29T06:33:43Z</time>
      </trkpt>
      <trkpt lat="43.60868" lon="6.38374">
        <ele>561.55</ele>
        <time>2016-04-29T06:33:45Z</time>
      </trkpt>
      <trkpt lat="43.60874" lon="6.38378">
        <ele>560.59</ele>
        <time>2016-04-29T06:33:58Z</time>
      </trkpt>
      <trkpt lat="43.60887" lon="6.38381">
        <ele>559.62</ele>
        <time>2016-04-29T06:34:08Z</time>
      </trkpt>
      <trkpt lat="43.60891" lon="6.38382">
        <ele>559.14</ele>
        <time>2016-04-29T06:34:10Z</time>
      </trkpt>
      <trkpt lat="43.60904" lon="6.38383">
        <ele>558.66</ele>
        <time>2016-04-29T06:34:17Z</time>
      </trkpt>
      <trkpt lat="43.6092" lon="6.38381">
        <ele>556.74</ele>
        <time>2016-04-29T06:34:29Z</time>
      </trkpt>
      <trkpt lat="43.60922" lon="6.3838">
        <ele>556.74</ele>
        <time>2016-04-29T06:34:30Z</time>
      </trkpt>
      <trkpt lat="43.60934" lon="6.38377">
        <ele>555.78</ele>
        <time>2016-04-29T06:34:41Z</time>
      </trkpt>
      <trkpt lat="43.60937" lon="6.38377">
        <ele>555.78</ele>
        <time>2016-04-29T06:34:45Z</time>
      </trkpt>
      <trkpt lat="43.60941" lon="6.38379">
        <ele>555.3</ele>
        <time>2016-04-29T06:34:48Z</time>
      </trkpt>
      <trkpt lat="43.60947" lon="6.38382">
        <ele>554.34</ele>
        <time>2016-04-29T06:34:54Z</time>
      </trkpt>
      <trkpt lat="43.60949" lon="6.38383">
        <ele>554.34</ele>
        <time>2016-04-29T06:34:56Z</time>
      </trkpt>
      <trkpt lat="43.60969" lon="6.38383">
        <ele>552.9</ele>
        <time>2016-04-29T06:35:08Z</time>
      </trkpt>
      <trkpt lat="43.60988" lon="6.38391">
        <ele>551.45</ele>
        <time>2016-04-29T06:35:22Z</time>
      </trkpt>
      <trkpt lat="43.60997" lon="6.38391">
        <ele>549.53</ele>
        <time>2016-04-29T06:35:31Z</time>
      </trkpt>
      <trkpt lat="43.60998" lon="6.38392">
        <ele>549.53</ele>
        <time>2016-04-29T06:35:33Z</time>
      </trkpt>
      <trkpt lat="43.6101" lon="6.38391">
        <ele>546.17</ele>
        <time>2016-04-29T06:35:45Z</time>
      </trkpt>
      <trkpt lat="43.61012" lon="6.38391">
        <ele>545.69</ele>
        <time>2016-04-29T06:35:47Z</time>
      </trkpt>
      <trkpt lat="43.61029" lon="6.38389">
        <ele>544.24</ele>
        <time>2016-04-29T06:35:57Z</time>
      </trkpt>
      <trkpt lat="43.61031" lon="6.38388">
        <ele>543.76</ele>
        <time>2016-04-29T06:36:00Z</time>
      </trkpt>
      <trkpt lat="43.61037" lon="6.38387">
        <ele>543.28</ele>
        <time>2016-04-29T06:36:11Z</time>
      </trkpt>
      <trkpt lat="43.61039" lon="6.38384">
        <ele>542.8</ele>
        <time>2016-04-29T06:36:15Z</time>
      </trkpt>
      <trkpt lat="43.61043" lon="6.3838">
        <ele>542.8</ele>
        <time>2016-04-29T06:36:18Z</time>
      </trkpt>
      <trkpt lat="43.61047" lon="6.38377">
        <ele>542.8</ele>
        <time>2016-04-29T06:36:24Z</time>
      </trkpt>
      <trkpt lat="43.61051" lon="6.38374">
        <ele>542.32</ele>
        <time>2016-04-29T06:36:27Z</time>
      </trkpt>
      <trkpt lat="43.61071" lon="6.38367">
        <ele>541.36</ele>
        <time>2016-04-29T06:36:39Z</time>
      </trkpt>
      <trkpt lat="43.61096" lon="6.38359">
        <ele>541.36</ele>
        <time>2016-04-29T06:36:51Z</time>
      </trkpt>
      <trkpt lat="43.61106" lon="6.38345">
        <ele>541.36</ele>
        <time>2016-04-29T06:37:08Z</time>
      </trkpt>
      <trkpt lat="43.61105" lon="6.38347">
        <ele>541.36</ele>
        <time>2016-04-29T06:37:10Z</time>
      </trkpt>
      <trkpt lat="43.61116" lon="6.38334">
        <ele>540.88</ele>
        <time>2016-04-29T06:37:19Z</time>
      </trkpt>
      <trkpt lat="43.61119" lon="6.38333">
        <ele>540.88</ele>
        <time>2016-04-29T06:37:20Z</time>
      </trkpt>
      <trkpt lat="43.61133" lon="6.38332">
        <ele>540.4</ele>
        <time>2016-04-29T06:37:34Z</time>
      </trkpt>
      <trkpt lat="43.61134" lon="6.38331">
        <ele>540.4</ele>
        <time>2016-04-29T06:37:46Z</time>
      </trkpt>
      <trkpt lat="43.61147" lon="6.3834">
        <ele>539.92</ele>
        <time>2016-04-29T06:38:00Z</time>
      </trkpt>
      <trkpt lat="43.61148" lon="6.38339">
        <ele>539.92</ele>
        <time>2016-04-29T06:38:08Z</time>
      </trkpt>
      <trkpt lat="43.61149" lon="6.38344">
        <ele>539.92</ele>
        <time>2016-04-29T06:38:12Z</time>
      </trkpt>
      <trkpt lat="43.61154" lon="6.3835">
        <ele>539.44</ele>
        <time>2016-04-29T06:38:17Z</time>
      </trkpt>
      <trkpt lat="43.61158" lon="6.38367">
        <ele>538.96</ele>
        <time>2016-04-29T06:38:25Z</time>
      </trkpt>
      <trkpt lat="43.61159" lon="6.3837">
        <ele>538.96</ele>
        <time>2016-04-29T06:38:27Z</time>
      </trkpt>
      <trkpt lat="43.61166" lon="6.38387">
        <ele>538.48</ele>
        <time>2016-04-29T06:38:37Z</time>
      </trkpt>
      <trkpt lat="43.61171" lon="6.38403">
        <ele>538.96</ele>
        <time>2016-04-29T06:38:46Z</time>
      </trkpt>
      <trkpt lat="43.61174" lon="6.38415">
        <ele>538.96</ele>
        <time>2016-04-29T06:38:53Z</time>
      </trkpt>
      <trkpt lat="43.6118" lon="6.38435">
        <ele>539.44</ele>
        <time>2016-04-29T06:39:04Z</time>
      </trkpt>
      <trkpt lat="43.61183" lon="6.38447">
        <ele>539.44</ele>
        <time>2016-04-29T06:39:11Z</time>
      </trkpt>
      <trkpt lat="43.61184" lon="6.38455">
        <ele>539.44</ele>
        <time>2016-04-29T06:39:16Z</time>
      </trkpt>
      <trkpt lat="43.61186" lon="6.38466">
        <ele>538.96</ele>
        <time>2016-04-29T06:39:22Z</time>
      </trkpt>
      <trkpt lat="43.61188" lon="6.38479">
        <ele>540.88</ele>
        <time>2016-04-29T06:39:29Z</time>
      </trkpt>
      <trkpt lat="43.61189" lon="6.38488">
        <ele>535.11</ele>
        <time>2016-04-29T06:39:33Z</time>
      </trkpt>
      <trkpt lat="43.61189" lon="6.38489">
        <ele>541.36</ele>
        <time>2016-04-29T06:39:34Z</time>
      </trkpt>
      <trkpt lat="43.61188" lon="6.385">
        <ele>535.11</ele>
        <time>2016-04-29T06:39:40Z</time>
      </trkpt>
      <trkpt lat="43.61188" lon="6.38501">
        <ele>541.84</ele>
        <time>2016-04-29T06:39:41Z</time>
      </trkpt>
      <trkpt lat="43.61188" lon="6.38502">
        <ele>537.99</ele>
        <time>2016-04-29T06:39:43Z</time>
      </trkpt>
      <trkpt lat="43.61188" lon="6.38503">
        <ele>541.36</ele>
        <time>2016-04-29T06:39:49Z</time>
      </trkpt>
      <trkpt lat="43.61189" lon="6.38506">
        <ele>541.36</ele>
        <time>2016-04-29T06:39:51Z</time>
      </trkpt>
      <trkpt lat="43.6119" lon="6.3851">
        <ele>538.96</ele>
        <time>2016-04-29T06:40:01Z</time>
      </trkpt>
      <trkpt lat="43.6119" lon="6.38511">
        <ele>538.96</ele>
        <time>2016-04-29T06:40:17Z</time>
      </trkpt>
      <trkpt lat="43.61188" lon="6.38513">
        <ele>538.96</ele>
        <time>2016-04-29T06:40:41Z</time>
      </trkpt>
      <trkpt lat="43.61187" lon="6.38513">
        <ele>538.96</ele>
        <time>2016-04-29T06:41:02Z</time>
      </trkpt>
      <trkpt lat="43.61187" lon="6.38513">
        <ele>538.48</ele>
        <time>2016-04-29T06:41:34Z</time>
      </trkpt>
      <trkpt lat="43.61189" lon="6.38515">
        <ele>538.96</ele>
        <time>2016-04-29T06:41:44Z</time>
      </trkpt>
      <trkpt lat="43.61194" lon="6.38522">
        <ele>539.44</ele>
        <time>2016-04-29T06:41:50Z</time>
      </trkpt>
      <trkpt lat="43.61198" lon="6.38526">
        <ele>540.4</ele>
        <time>2016-04-29T06:41:54Z</time>
      </trkpt>
      <trkpt lat="43.61205" lon="6.38532">
        <ele>541.36</ele>
        <time>2016-04-29T06:42:00Z</time>
      </trkpt>
      <trkpt lat="43.61221" lon="6.38538">
        <ele>543.28</ele>
        <time>2016-04-29T06:42:12Z</time>
      </trkpt>
      <trkpt lat="43.61228" lon="6.38544">
        <ele>545.2</ele>
        <time>2016-04-29T06:42:20Z</time>
      </trkpt>
      <trkpt lat="43.61244" lon="6.38551">
        <ele>548.57</ele>
        <time>2016-04-29T06:42:34Z</time>
      </trkpt>
      <trkpt lat="43.61253" lon="6.38553">
        <ele>550.49</ele>
        <time>2016-04-29T06:42:41Z</time>
      </trkpt>
      <trkpt lat="43.6127" lon="6.38562">
        <ele>552.9</ele>
        <time>2016-04-29T06:42:55Z</time>
      </trkpt>
      <trkpt lat="43.6129" lon="6.38572">
        <ele>555.78</ele>
        <time>2016-04-29T06:43:11Z</time>
      </trkpt>
      <trkpt lat="43.61314" lon="6.38586">
        <ele>558.66</ele>
        <time>2016-04-29T06:43:29Z</time>
      </trkpt>
      <trkpt lat="43.61332" lon="6.38594">
        <ele>560.11</ele>
        <time>2016-04-29T06:43:43Z</time>
      </trkpt>
      <trkpt lat="43.61353" lon="6.38607">
        <ele>562.03</ele>
        <time>2016-04-29T06:43:59Z</time>
      </trkpt>
      <trkpt lat="43.61369" lon="6.38619">
        <ele>563.95</ele>
        <time>2016-04-29T06:44:12Z</time>
      </trkpt>
      <trkpt lat="43.6139" lon="6.38629">
        <ele>565.39</ele>
        <time>2016-04-29T06:44:28Z</time>
      </trkpt>
      <trkpt lat="43.61408" lon="6.38641">
        <ele>566.83</ele>
        <time>2016-04-29T06:44:44Z</time>
      </trkpt>
      <trkpt lat="43.6143" lon="6.38649">
        <ele>568.76</ele>
        <time>2016-04-29T06:45:00Z</time>
      </trkpt>
      <trkpt lat="43.61451" lon="6.38656">
        <ele>570.68</ele>
        <time>2016-04-29T06:45:15Z</time>
      </trkpt>
      <trkpt lat="43.61475" lon="6.38661">
        <ele>573.08</ele>
        <time>2016-04-29T06:45:32Z</time>
      </trkpt>
      <trkpt lat="43.6149" lon="6.38663">
        <ele>575.01</ele>
        <time>2016-04-29T06:45:44Z</time>
      </trkpt>
      <trkpt lat="43.61494" lon="6.38656">
        <ele>575.97</ele>
        <time>2016-04-29T06:46:00Z</time>
      </trkpt>
      <trkpt lat="43.61496" lon="6.38654">
        <ele>575.97</ele>
        <time>2016-04-29T06:46:03Z</time>
      </trkpt>
      <trkpt lat="43.61498" lon="6.3865">
        <ele>577.89</ele>
        <time>2016-04-29T06:46:17Z</time>
      </trkpt>
      <trkpt lat="43.61497" lon="6.3865">
        <ele>577.41</ele>
        <time>2016-04-29T06:46:18Z</time>
      </trkpt>
      <trkpt lat="43.61494" lon="6.38653">
        <ele>575.97</ele>
        <time>2016-04-29T06:46:24Z</time>
      </trkpt>
      <trkpt lat="43.615" lon="6.3866">
        <ele>575.97</ele>
        <time>2016-04-29T06:46:31Z</time>
      </trkpt>
      <trkpt lat="43.61508" lon="6.38665">
        <ele>576.93</ele>
        <time>2016-04-29T06:46:39Z</time>
      </trkpt>
      <trkpt lat="43.61514" lon="6.38666">
        <ele>577.89</ele>
        <time>2016-04-29T06:46:44Z</time>
      </trkpt>
      <trkpt lat="43.61525" lon="6.38664">
        <ele>579.33</ele>
        <time>2016-04-29T06:46:54Z</time>
      </trkpt>
      <trkpt lat="43.61528" lon="6.38664">
        <ele>579.33</ele>
        <time>2016-04-29T06:46:56Z</time>
      </trkpt>
      <trkpt lat="43.61533" lon="6.38661">
        <ele>580.77</ele>
        <time>2016-04-29T06:47:00Z</time>
      </trkpt>
      <trkpt lat="43.61545" lon="6.38657">
        <ele>582.22</ele>
        <time>2016-04-29T06:47:09Z</time>
      </trkpt>
      <trkpt lat="43.61548" lon="6.38656">
        <ele>582.7</ele>
        <time>2016-04-29T06:47:11Z</time>
      </trkpt>
      <trkpt lat="43.61561" lon="6.38656">
        <ele>585.58</ele>
        <time>2016-04-29T06:47:23Z</time>
      </trkpt>
      <trkpt lat="43.61578" lon="6.3866">
        <ele>588.95</ele>
        <time>2016-04-29T06:47:38Z</time>
      </trkpt>
      <trkpt lat="43.61583" lon="6.38661">
        <ele>589.91</ele>
        <time>2016-04-29T06:47:43Z</time>
      </trkpt>
      <trkpt lat="43.61594" lon="6.38666">
        <ele>592.31</ele>
        <time>2016-04-29T06:47:54Z</time>
      </trkpt>
      <trkpt lat="43.61613" lon="6.38671">
        <ele>595.67</ele>
        <time>2016-04-29T06:48:09Z</time>
      </trkpt>
      <trkpt lat="43.6162" lon="6.38678">
        <ele>597.12</ele>
        <time>2016-04-29T06:48:16Z</time>
      </trkpt>
      <trkpt lat="43.61622" lon="6.3868">
        <ele>597.12</ele>
        <time>2016-04-29T06:48:18Z</time>
      </trkpt>
      <trkpt lat="43.6164" lon="6.38692">
        <ele>599.04</ele>
        <time>2016-04-29T06:48:33Z</time>
      </trkpt>
      <trkpt lat="43.61643" lon="6.38695">
        <ele>600</ele>
        <time>2016-04-29T06:48:48Z</time>
      </trkpt>
      <trkpt lat="43.61644" lon="6.38692">
        <ele>600</ele>
        <time>2016-04-29T06:49:02Z</time>
      </trkpt>
      <trkpt lat="43.61645" lon="6.38693">
        <ele>600</ele>
        <time>2016-04-29T06:49:04Z</time>
      </trkpt>
      <trkpt lat="43.61651" lon="6.38701">
        <ele>600.96</ele>
        <time>2016-04-29T06:49:11Z</time>
      </trkpt>
      <trkpt lat="43.61666" lon="6.38714">
        <ele>602.4</ele>
        <time>2016-04-29T06:49:25Z</time>
      </trkpt>
      <trkpt lat="43.61668" lon="6.38716">
        <ele>602.88</ele>
        <time>2016-04-29T06:49:27Z</time>
      </trkpt>
      <trkpt lat="43.61678" lon="6.38722">
        <ele>604.33</ele>
        <time>2016-04-29T06:49:36Z</time>
      </trkpt>
      <trkpt lat="43.61685" lon="6.38727">
        <ele>605.77</ele>
        <time>2016-04-29T06:49:45Z</time>
      </trkpt>
      <trkpt lat="43.61688" lon="6.38727">
        <ele>605.77</ele>
        <time>2016-04-29T06:49:47Z</time>
      </trkpt>
      <trkpt lat="43.61695" lon="6.38729">
        <ele>607.21</ele>
        <time>2016-04-29T06:49:54Z</time>
      </trkpt>
      <trkpt lat="43.61708" lon="6.38734">
        <ele>609.13</ele>
        <time>2016-04-29T06:50:05Z</time>
      </trkpt>
      <trkpt lat="43.6171" lon="6.38737">
        <ele>609.61</ele>
        <time>2016-04-29T06:50:08Z</time>
      </trkpt>
      <trkpt lat="43.61716" lon="6.38748">
        <ele>612.02</ele>
        <time>2016-04-29T06:50:18Z</time>
      </trkpt>
      <trkpt lat="43.61722" lon="6.3875">
        <ele>613.46</ele>
        <time>2016-04-29T06:50:24Z</time>
      </trkpt>
      <trkpt lat="43.61725" lon="6.38741">
        <ele>614.9</ele>
        <time>2016-04-29T06:50:39Z</time>
      </trkpt>
      <trkpt lat="43.61725" lon="6.38736">
        <ele>615.38</ele>
        <time>2016-04-29T06:50:43Z</time>
      </trkpt>
      <trkpt lat="43.61727" lon="6.38732">
        <ele>615.86</ele>
        <time>2016-04-29T06:50:46Z</time>
      </trkpt>
      <trkpt lat="43.61734" lon="6.38712">
        <ele>619.23</ele>
        <time>2016-04-29T06:51:01Z</time>
      </trkpt>
      <trkpt lat="43.61737" lon="6.38709">
        <ele>619.71</ele>
        <time>2016-04-29T06:51:05Z</time>
      </trkpt>
      <trkpt lat="43.61742" lon="6.38686">
        <ele>623.55</ele>
        <time>2016-04-29T06:51:20Z</time>
      </trkpt>
      <trkpt lat="43.61741" lon="6.38682">
        <ele>624.03</ele>
        <time>2016-04-29T06:51:22Z</time>
      </trkpt>
      <trkpt lat="43.6172" lon="6.38672">
        <ele>626.92</ele>
        <time>2016-04-29T06:51:36Z</time>
      </trkpt>
      <trkpt lat="43.61713" lon="6.38666">
        <ele>627.88</ele>
        <time>2016-04-29T06:51:43Z</time>
      </trkpt>
      <trkpt lat="43.6171" lon="6.38665">
        <ele>628.36</ele>
        <time>2016-04-29T06:51:45Z</time>
      </trkpt>
      <trkpt lat="43.61697" lon="6.38654">
        <ele>630.76</ele>
        <time>2016-04-29T06:52:02Z</time>
      </trkpt>
      <trkpt lat="43.61699" lon="6.38649">
        <ele>631.72</ele>
        <time>2016-04-29T06:52:16Z</time>
      </trkpt>
      <trkpt lat="43.61697" lon="6.3865">
        <ele>631.72</ele>
        <time>2016-04-29T06:52:40Z</time>
      </trkpt>
      <trkpt lat="43.61697" lon="6.3865">
        <ele>631.72</ele>
        <time>2016-04-29T06:53:05Z</time>
      </trkpt>
      <trkpt lat="43.61697" lon="6.3865">
        <ele>631.72</ele>
        <time>2016-04-29T06:53:30Z</time>
      </trkpt>
      <trkpt lat="43.61696" lon="6.38651">
        <ele>631.72</ele>
        <time>2016-04-29T06:53:51Z</time>
      </trkpt>
      <trkpt lat="43.61696" lon="6.38651">
        <ele>631.72</ele>
        <time>2016-04-29T06:54:17Z</time>
      </trkpt>
      <trkpt lat="43.61695" lon="6.38651">
        <ele>631.72</ele>
        <time>2016-04-29T06:54:40Z</time>
      </trkpt>
      <trkpt lat="43.61695" lon="6.38651">
        <ele>632.2</ele>
        <time>2016-04-29T06:54:46Z</time>
      </trkpt>
      <trkpt lat="43.61704" lon="6.38646">
        <ele>633.65</ele>
        <time>2016-04-29T06:54:55Z</time>
      </trkpt>
      <trkpt lat="43.61705" lon="6.38645">
        <ele>634.13</ele>
        <time>2016-04-29T06:54:57Z</time>
      </trkpt>
      <trkpt lat="43.61717" lon="6.38638">
        <ele>635.09</ele>
        <time>2016-04-29T06:55:09Z</time>
      </trkpt>
      <trkpt lat="43.61728" lon="6.38632">
        <ele>636.05</ele>
        <time>2016-04-29T06:55:18Z</time>
      </trkpt>
      <trkpt lat="43.61744" lon="6.38621">
        <ele>637.97</ele>
        <time>2016-04-29T06:55:33Z</time>
      </trkpt>
      <trkpt lat="43.61758" lon="6.38618">
        <ele>639.89</ele>
        <time>2016-04-29T06:55:46Z</time>
      </trkpt>
      <trkpt lat="43.61777" lon="6.38607">
        <ele>642.78</ele>
        <time>2016-04-29T06:56:00Z</time>
      </trkpt>
      <trkpt lat="43.61787" lon="6.38599">
        <ele>644.22</ele>
        <time>2016-04-29T06:56:08Z</time>
      </trkpt>
      <trkpt lat="43.61793" lon="6.38593">
        <ele>644.7</ele>
        <time>2016-04-29T06:56:13Z</time>
      </trkpt>
      <trkpt lat="43.61797" lon="6.38592">
        <ele>645.66</ele>
        <time>2016-04-29T06:56:28Z</time>
      </trkpt>
      <trkpt lat="43.61798" lon="6.38592">
        <ele>646.14</ele>
        <time>2016-04-29T06:56:43Z</time>
      </trkpt>
      <trkpt lat="43.61804" lon="6.38584">
        <ele>646.14</ele>
        <time>2016-04-29T06:57:06Z</time>
      </trkpt>
      <trkpt lat="43.61806" lon="6.38582">
        <ele>646.62</ele>
        <time>2016-04-29T06:57:08Z</time>
      </trkpt>
      <trkpt lat="43.6182" lon="6.38575">
        <ele>648.55</ele>
        <time>2016-04-29T06:57:19Z</time>
      </trkpt>
      <trkpt lat="43.61827" lon="6.38572">
        <ele>650.47</ele>
        <time>2016-04-29T06:57:25Z</time>
      </trkpt>
      <trkpt lat="43.61828" lon="6.38571">
        <ele>650.95</ele>
        <time>2016-04-29T06:57:27Z</time>
      </trkpt>
      <trkpt lat="43.61834" lon="6.38567">
        <ele>650.95</ele>
        <time>2016-04-29T06:57:42Z</time>
      </trkpt>
      <trkpt lat="43.61833" lon="6.38568">
        <ele>650.47</ele>
        <time>2016-04-29T06:58:04Z</time>
      </trkpt>
      <trkpt lat="43.61832" lon="6.38568">
        <ele>650.47</ele>
        <time>2016-04-29T06:58:05Z</time>
      </trkpt>
      <trkpt lat="43.6183" lon="6.38569">
        <ele>649.99</ele>
        <time>2016-04-29T06:58:07Z</time>
      </trkpt>
      <trkpt lat="43.61827" lon="6.38571">
        <ele>649.51</ele>
        <time>2016-04-29T06:58:10Z</time>
      </trkpt>
      <trkpt lat="43.6182" lon="6.38573">
        <ele>648.55</ele>
        <time>2016-04-29T06:58:16Z</time>
      </trkpt>
      <trkpt lat="43.61805" lon="6.38582">
        <ele>646.62</ele>
        <time>2016-04-29T06:58:30Z</time>
      </trkpt>
      <trkpt lat="43.618" lon="6.38582">
        <ele>646.14</ele>
        <time>2016-04-29T06:58:42Z</time>
      </trkpt>
      <trkpt lat="43.618" lon="6.38582">
        <ele>640.38</ele>
        <time>2016-04-29T06:58:56Z</time>
      </trkpt>
      <trkpt lat="43.618" lon="6.38582">
        <ele>650.95</ele>
        <time>2016-04-29T06:58:57Z</time>
      </trkpt>
      <trkpt lat="43.618" lon="6.38582">
        <ele>646.62</ele>
        <time>2016-04-29T06:58:58Z</time>
      </trkpt>
      <trkpt lat="43.618" lon="6.38583">
        <ele>646.14</ele>
        <time>2016-04-29T06:59:19Z</time>
      </trkpt>
      <trkpt lat="43.61808" lon="6.38582">
        <ele>646.14</ele>
        <time>2016-04-29T06:59:26Z</time>
      </trkpt>
      <trkpt lat="43.61824" lon="6.38573">
        <ele>648.55</ele>
        <time>2016-04-29T06:59:40Z</time>
      </trkpt>
      <trkpt lat="43.61837" lon="6.38564">
        <ele>649.99</ele>
        <time>2016-04-29T06:59:50Z</time>
      </trkpt>
      <trkpt lat="43.61839" lon="6.38563">
        <ele>650.47</ele>
        <time>2016-04-29T06:59:52Z</time>
      </trkpt>
      <trkpt lat="43.61851" lon="6.38554">
        <ele>652.39</ele>
        <time>2016-04-29T07:00:05Z</time>
      </trkpt>
      <trkpt lat="43.61855" lon="6.3855">
        <ele>653.35</ele>
        <time>2016-04-29T07:00:10Z</time>
      </trkpt>
      <trkpt lat="43.61861" lon="6.38541">
        <ele>654.8</ele>
        <time>2016-04-29T07:00:22Z</time>
      </trkpt>
      <trkpt lat="43.61862" lon="6.38539">
        <ele>654.8</ele>
        <time>2016-04-29T07:00:30Z</time>
      </trkpt>
      <trkpt lat="43.61864" lon="6.38536">
        <ele>654.8</ele>
        <time>2016-04-29T07:00:33Z</time>
      </trkpt>
      <trkpt lat="43.6188" lon="6.38527">
        <ele>656.24</ele>
        <time>2016-04-29T07:00:46Z</time>
      </trkpt>
      <trkpt lat="43.61886" lon="6.38524">
        <ele>657.2</ele>
        <time>2016-04-29T07:00:59Z</time>
      </trkpt>
      <trkpt lat="43.61886" lon="6.38524">
        <ele>657.2</ele>
        <time>2016-04-29T07:01:12Z</time>
      </trkpt>
      <trkpt lat="43.61891" lon="6.3852">
        <ele>657.68</ele>
        <time>2016-04-29T07:01:16Z</time>
      </trkpt>
      <trkpt lat="43.61902" lon="6.38518">
        <ele>658.64</ele>
        <time>2016-04-29T07:01:26Z</time>
      </trkpt>
      <trkpt lat="43.61915" lon="6.38515">
        <ele>660.56</ele>
        <time>2016-04-29T07:01:40Z</time>
      </trkpt>
      <trkpt lat="43.6192" lon="6.38514">
        <ele>661.04</ele>
        <time>2016-04-29T07:01:44Z</time>
      </trkpt>
      <trkpt lat="43.61936" lon="6.38502">
        <ele>662.49</ele>
        <time>2016-04-29T07:01:59Z</time>
      </trkpt>
      <trkpt lat="43.61941" lon="6.38499">
        <ele>662.97</ele>
        <time>2016-04-29T07:02:03Z</time>
      </trkpt>
      <trkpt lat="43.61958" lon="6.38488">
        <ele>663.93</ele>
        <time>2016-04-29T07:02:17Z</time>
      </trkpt>
      <trkpt lat="43.61976" lon="6.38484">
        <ele>665.37</ele>
        <time>2016-04-29T07:02:33Z</time>
      </trkpt>
      <trkpt lat="43.61996" lon="6.38482">
        <ele>666.33</ele>
        <time>2016-04-29T07:02:47Z</time>
      </trkpt>
      <trkpt lat="43.62019" lon="6.38469">
        <ele>667.77</ele>
        <time>2016-04-29T07:03:03Z</time>
      </trkpt>
      <trkpt lat="43.62023" lon="6.38466">
        <ele>667.77</ele>
        <time>2016-04-29T07:03:06Z</time>
      </trkpt>
      <trkpt lat="43.6203" lon="6.38458">
        <ele>667.77</ele>
        <time>2016-04-29T07:03:13Z</time>
      </trkpt>
      <trkpt lat="43.62042" lon="6.38453">
        <ele>668.25</ele>
        <time>2016-04-29T07:03:22Z</time>
      </trkpt>
      <trkpt lat="43.62061" lon="6.38443">
        <ele>668.73</ele>
        <time>2016-04-29T07:03:38Z</time>
      </trkpt>
      <trkpt lat="43.6207" lon="6.3844">
        <ele>668.25</ele>
        <time>2016-04-29T07:03:53Z</time>
      </trkpt>
      <trkpt lat="43.62072" lon="6.3844">
        <ele>668.73</ele>
        <time>2016-04-29T07:03:58Z</time>
      </trkpt>
      <trkpt lat="43.62075" lon="6.38441">
        <ele>668.25</ele>
        <time>2016-04-29T07:04:00Z</time>
      </trkpt>
      <trkpt lat="43.62096" lon="6.38439">
        <ele>668.73</ele>
        <time>2016-04-29T07:04:18Z</time>
      </trkpt>
      <trkpt lat="43.62118" lon="6.38436">
        <ele>668.73</ele>
        <time>2016-04-29T07:04:35Z</time>
      </trkpt>
      <trkpt lat="43.62141" lon="6.38434">
        <ele>668.73</ele>
        <time>2016-04-29T07:04:51Z</time>
      </trkpt>
      <trkpt lat="43.62165" lon="6.38431">
        <ele>668.73</ele>
        <time>2016-04-29T07:05:07Z</time>
      </trkpt>
      <trkpt lat="43.62183" lon="6.38427">
        <ele>667.29</ele>
        <time>2016-04-29T07:05:24Z</time>
      </trkpt>
      <trkpt lat="43.62187" lon="6.38427">
        <ele>667.29</ele>
        <time>2016-04-29T07:05:27Z</time>
      </trkpt>
      <trkpt lat="43.62206" lon="6.38427">
        <ele>666.33</ele>
        <time>2016-04-29T07:05:40Z</time>
      </trkpt>
      <trkpt lat="43.62226" lon="6.3843">
        <ele>666.33</ele>
        <time>2016-04-29T07:05:55Z</time>
      </trkpt>
      <trkpt lat="43.62245" lon="6.38435">
        <ele>665.85</ele>
        <time>2016-04-29T07:06:10Z</time>
      </trkpt>
      <trkpt lat="43.62267" lon="6.38443">
        <ele>666.33</ele>
        <time>2016-04-29T07:06:27Z</time>
      </trkpt>
      <trkpt lat="43.62292" lon="6.38443">
        <ele>666.33</ele>
        <time>2016-04-29T07:06:44Z</time>
      </trkpt>
      <trkpt lat="43.62312" lon="6.38442">
        <ele>666.33</ele>
        <time>2016-04-29T07:06:58Z</time>
      </trkpt>
      <trkpt lat="43.62332" lon="6.38438">
        <ele>667.29</ele>
        <time>2016-04-29T07:07:13Z</time>
      </trkpt>
      <trkpt lat="43.62351" lon="6.38436">
        <ele>667.29</ele>
        <time>2016-04-29T07:07:26Z</time>
      </trkpt>
      <trkpt lat="43.62368" lon="6.38436">
        <ele>666.81</ele>
        <time>2016-04-29T07:07:39Z</time>
      </trkpt>
      <trkpt lat="43.62387" lon="6.38439">
        <ele>667.29</ele>
        <time>2016-04-29T07:07:52Z</time>
      </trkpt>
      <trkpt lat="43.62403" lon="6.38444">
        <ele>668.73</ele>
        <time>2016-04-29T07:08:04Z</time>
      </trkpt>
      <trkpt lat="43.62423" lon="6.38447">
        <ele>669.7</ele>
        <time>2016-04-29T07:08:17Z</time>
      </trkpt>
      <trkpt lat="43.62425" lon="6.38449">
        <ele>670.18</ele>
        <time>2016-04-29T07:08:19Z</time>
      </trkpt>
      <trkpt lat="43.62431" lon="6.38451">
        <ele>669.7</ele>
        <time>2016-04-29T07:08:33Z</time>
      </trkpt>
      <trkpt lat="43.62431" lon="6.38451">
        <ele>669.7</ele>
        <time>2016-04-29T07:08:59Z</time>
      </trkpt>
      <trkpt lat="43.62432" lon="6.38449">
        <ele>669.7</ele>
        <time>2016-04-29T07:09:24Z</time>
      </trkpt>
      <trkpt lat="43.62432" lon="6.38449">
        <ele>669.7</ele>
        <time>2016-04-29T07:09:32Z</time>
      </trkpt>
      <trkpt lat="43.6243" lon="6.38446">
        <ele>669.7</ele>
        <time>2016-04-29T07:09:35Z</time>
      </trkpt>
      <trkpt lat="43.62428" lon="6.38445">
        <ele>669.22</ele>
        <time>2016-04-29T07:09:46Z</time>
      </trkpt>
      <trkpt lat="43.6243" lon="6.38446">
        <ele>669.7</ele>
        <time>2016-04-29T07:09:48Z</time>
      </trkpt>
      <trkpt lat="43.62433" lon="6.38448">
        <ele>669.7</ele>
        <time>2016-04-29T07:09:55Z</time>
      </trkpt>
      <trkpt lat="43.6244" lon="6.38442">
        <ele>670.18</ele>
        <time>2016-04-29T07:10:06Z</time>
      </trkpt>
      <trkpt lat="43.6244" lon="6.38441">
        <ele>670.18</ele>
        <time>2016-04-29T07:10:07Z</time>
      </trkpt>
      <trkpt lat="43.62439" lon="6.38431">
        <ele>669.7</ele>
        <time>2016-04-29T07:10:12Z</time>
      </trkpt>
      <trkpt lat="43.62437" lon="6.38424">
        <ele>668.73</ele>
        <time>2016-04-29T07:10:16Z</time>
      </trkpt>
      <trkpt lat="43.62434" lon="6.3842">
        <ele>668.73</ele>
        <time>2016-04-29T07:10:19Z</time>
      </trkpt>
      <trkpt lat="43.62431" lon="6.38408">
        <ele>667.77</ele>
        <time>2016-04-29T07:10:27Z</time>
      </trkpt>
      <trkpt lat="43.62428" lon="6.38402">
        <ele>667.29</ele>
        <time>2016-04-29T07:10:33Z</time>
      </trkpt>
      <trkpt lat="43.62418" lon="6.38384">
        <ele>665.85</ele>
        <time>2016-04-29T07:10:47Z</time>
      </trkpt>
      <trkpt lat="43.62418" lon="6.38378">
        <ele>665.37</ele>
        <time>2016-04-29T07:10:51Z</time>
      </trkpt>
      <trkpt lat="43.62417" lon="6.38364">
        <ele>664.41</ele>
        <time>2016-04-29T07:11:01Z</time>
      </trkpt>
      <trkpt lat="43.62417" lon="6.38347">
        <ele>663.45</ele>
        <time>2016-04-29T07:11:10Z</time>
      </trkpt>
      <trkpt lat="43.62417" lon="6.38334">
        <ele>662.49</ele>
        <time>2016-04-29T07:11:17Z</time>
      </trkpt>
      <trkpt lat="43.62419" lon="6.38326">
        <ele>662.01</ele>
        <time>2016-04-29T07:11:22Z</time>
      </trkpt>
      <trkpt lat="43.6242" lon="6.38323">
        <ele>661.52</ele>
        <time>2016-04-29T07:11:24Z</time>
      </trkpt>
      <trkpt lat="43.62431" lon="6.38305">
        <ele>660.56</ele>
        <time>2016-04-29T07:11:39Z</time>
      </trkpt>
      <trkpt lat="43.62441" lon="6.38282">
        <ele>659.6</ele>
        <time>2016-04-29T07:11:55Z</time>
      </trkpt>
      <trkpt lat="43.6244" lon="6.38282">
        <ele>659.6</ele>
        <time>2016-04-29T07:12:13Z</time>
      </trkpt>
      <trkpt lat="43.62442" lon="6.38278">
        <ele>659.6</ele>
        <time>2016-04-29T07:12:16Z</time>
      </trkpt>
      <trkpt lat="43.62448" lon="6.3826">
        <ele>658.64</ele>
        <time>2016-04-29T07:12:24Z</time>
      </trkpt>
      <trkpt lat="43.62458" lon="6.38236">
        <ele>658.64</ele>
        <time>2016-04-29T07:12:38Z</time>
      </trkpt>
      <trkpt lat="43.62462" lon="6.38216">
        <ele>658.64</ele>
        <time>2016-04-29T07:12:51Z</time>
      </trkpt>
      <trkpt lat="43.62464" lon="6.38206">
        <ele>658.16</ele>
        <time>2016-04-29T07:12:56Z</time>
      </trkpt>
      <trkpt lat="43.62468" lon="6.38185">
        <ele>658.16</ele>
        <time>2016-04-29T07:13:08Z</time>
      </trkpt>
      <trkpt lat="43.6247" lon="6.38179">
        <ele>658.16</ele>
        <time>2016-04-29T07:13:11Z</time>
      </trkpt>
      <trkpt lat="43.62471" lon="6.38173">
        <ele>658.16</ele>
        <time>2016-04-29T07:13:14Z</time>
      </trkpt>
      <trkpt lat="43.6247" lon="6.38143">
        <ele>658.16</ele>
        <time>2016-04-29T07:13:29Z</time>
      </trkpt>
      <trkpt lat="43.62472" lon="6.38132">
        <ele>658.16</ele>
        <time>2016-04-29T07:13:35Z</time>
      </trkpt>
      <trkpt lat="43.62472" lon="6.38121">
        <ele>658.16</ele>
        <time>2016-04-29T07:13:40Z</time>
      </trkpt>
      <trkpt lat="43.62472" lon="6.38111">
        <ele>658.16</ele>
        <time>2016-04-29T07:13:45Z</time>
      </trkpt>
      <trkpt lat="43.62473" lon="6.38103">
        <ele>657.2</ele>
        <time>2016-04-29T07:13:49Z</time>
      </trkpt>
      <trkpt lat="43.62472" lon="6.38078">
        <ele>656.72</ele>
        <time>2016-04-29T07:14:02Z</time>
      </trkpt>
      <trkpt lat="43.62476" lon="6.38051">
        <ele>654.8</ele>
        <time>2016-04-29T07:14:16Z</time>
      </trkpt>
      <trkpt lat="43.62476" lon="6.38021">
        <ele>654.31</ele>
        <time>2016-04-29T07:14:30Z</time>
      </trkpt>
      <trkpt lat="43.62476" lon="6.38018">
        <ele>654.31</ele>
        <time>2016-04-29T07:14:32Z</time>
      </trkpt>
      <trkpt lat="43.62467" lon="6.37988">
        <ele>653.83</ele>
        <time>2016-04-29T07:14:48Z</time>
      </trkpt>
      <trkpt lat="43.62459" lon="6.37962">
        <ele>652.87</ele>
        <time>2016-04-29T07:15:02Z</time>
      </trkpt>
      <trkpt lat="43.6246" lon="6.3795">
        <ele>652.39</ele>
        <time>2016-04-29T07:15:09Z</time>
      </trkpt>
      <trkpt lat="43.62465" lon="6.37933">
        <ele>652.39</ele>
        <time>2016-04-29T07:15:18Z</time>
      </trkpt>
      <trkpt lat="43.62466" lon="6.37924">
        <ele>652.87</ele>
        <time>2016-04-29T07:15:29Z</time>
      </trkpt>
      <trkpt lat="43.62467" lon="6.37921">
        <ele>652.87</ele>
        <time>2016-04-29T07:15:31Z</time>
      </trkpt>
      <trkpt lat="43.62468" lon="6.37914">
        <ele>652.87</ele>
        <time>2016-04-29T07:15:35Z</time>
      </trkpt>
      <trkpt lat="43.62469" lon="6.37909">
        <ele>652.87</ele>
        <time>2016-04-29T07:15:41Z</time>
      </trkpt>
      <trkpt lat="43.6247" lon="6.37905">
        <ele>652.87</ele>
        <time>2016-04-29T07:15:43Z</time>
      </trkpt>
      <trkpt lat="43.62472" lon="6.37896">
        <ele>653.35</ele>
        <time>2016-04-29T07:15:57Z</time>
      </trkpt>
      <trkpt lat="43.62472" lon="6.37896">
        <ele>653.35</ele>
        <time>2016-04-29T07:16:05Z</time>
      </trkpt>
      <trkpt lat="43.62473" lon="6.3789">
        <ele>653.35</ele>
        <time>2016-04-29T07:16:09Z</time>
      </trkpt>
      <trkpt lat="43.62478" lon="6.37862">
        <ele>652.87</ele>
        <time>2016-04-29T07:16:25Z</time>
      </trkpt>
      <trkpt lat="43.62486" lon="6.37835">
        <ele>652.87</ele>
        <time>2016-04-29T07:16:41Z</time>
      </trkpt>
      <trkpt lat="43.62495" lon="6.37814">
        <ele>652.39</ele>
        <time>2016-04-29T07:16:56Z</time>
      </trkpt>
      <trkpt lat="43.62503" lon="6.378">
        <ele>651.43</ele>
        <time>2016-04-29T07:17:06Z</time>
      </trkpt>
      <trkpt lat="43.62512" lon="6.37785">
        <ele>649.99</ele>
        <time>2016-04-29T07:17:18Z</time>
      </trkpt>
      <trkpt lat="43.62526" lon="6.37763">
        <ele>649.51</ele>
        <time>2016-04-29T07:17:34Z</time>
      </trkpt>
      <trkpt lat="43.62536" lon="6.3775">
        <ele>650.47</ele>
        <time>2016-04-29T07:17:47Z</time>
      </trkpt>
      <trkpt lat="43.62539" lon="6.37747">
        <ele>650.47</ele>
        <time>2016-04-29T07:17:49Z</time>
      </trkpt>
      <trkpt lat="43.62544" lon="6.37742">
        <ele>650.47</ele>
        <time>2016-04-29T07:17:53Z</time>
      </trkpt>
      <trkpt lat="43.62551" lon="6.37732">
        <ele>650.95</ele>
        <time>2016-04-29T07:18:00Z</time>
      </trkpt>
      <trkpt lat="43.6256" lon="6.37717">
        <ele>651.91</ele>
        <time>2016-04-29T07:18:10Z</time>
      </trkpt>
      <trkpt lat="43.62573" lon="6.37699">
        <ele>653.83</ele>
        <time>2016-04-29T07:18:23Z</time>
      </trkpt>
      <trkpt lat="43.62582" lon="6.3769">
        <ele>654.8</ele>
        <time>2016-04-29T07:18:36Z</time>
      </trkpt>
      <trkpt lat="43.62581" lon="6.3769">
        <ele>654.8</ele>
        <time>2016-04-29T07:18:51Z</time>
      </trkpt>
      <trkpt lat="43.62575" lon="6.3769">
        <ele>654.31</ele>
        <time>2016-04-29T07:18:59Z</time>
      </trkpt>
      <trkpt lat="43.6257" lon="6.37693">
        <ele>653.83</ele>
        <time>2016-04-29T07:19:04Z</time>
      </trkpt>
      <trkpt lat="43.62564" lon="6.37699">
        <ele>652.87</ele>
        <time>2016-04-29T07:19:13Z</time>
      </trkpt>
      <trkpt lat="43.62558" lon="6.37703">
        <ele>651.91</ele>
        <time>2016-04-29T07:19:31Z</time>
      </trkpt>
      <trkpt lat="43.6256" lon="6.37706">
        <ele>651.91</ele>
        <time>2016-04-29T07:19:47Z</time>
      </trkpt>
      <trkpt lat="43.62561" lon="6.37704">
        <ele>652.39</ele>
        <time>2016-04-29T07:19:49Z</time>
      </trkpt>
      <trkpt lat="43.6257" lon="6.37693">
        <ele>653.83</ele>
        <time>2016-04-29T07:20:00Z</time>
      </trkpt>
      <trkpt lat="43.62576" lon="6.37688">
        <ele>654.31</ele>
        <time>2016-04-29T07:20:07Z</time>
      </trkpt>
      <trkpt lat="43.62582" lon="6.37686">
        <ele>654.8</ele>
        <time>2016-04-29T07:20:12Z</time>
      </trkpt>
      <trkpt lat="43.62585" lon="6.37683">
        <ele>655.28</ele>
        <time>2016-04-29T07:20:15Z</time>
      </trkpt>
      <trkpt lat="43.62596" lon="6.37669">
        <ele>656.72</ele>
        <time>2016-04-29T07:20:29Z</time>
      </trkpt>
      <trkpt lat="43.62607" lon="6.3765">
        <ele>657.68</ele>
        <time>2016-04-29T07:20:42Z</time>
      </trkpt>
      <trkpt lat="43.62617" lon="6.37629">
        <ele>659.12</ele>
        <time>2016-04-29T07:20:58Z</time>
      </trkpt>
      <trkpt lat="43.62622" lon="6.37602">
        <ele>659.12</ele>
        <time>2016-04-29T07:21:13Z</time>
      </trkpt>
      <trkpt lat="43.62635" lon="6.37573">
        <ele>659.12</ele>
        <time>2016-04-29T07:21:31Z</time>
      </trkpt>
      <trkpt lat="43.62644" lon="6.37548">
        <ele>657.2</ele>
        <time>2016-04-29T07:21:44Z</time>
      </trkpt>
      <trkpt lat="43.62651" lon="6.37527">
        <ele>653.35</ele>
        <time>2016-04-29T07:21:56Z</time>
      </trkpt>
      <trkpt lat="43.62651" lon="6.37526">
        <ele>656.72</ele>
        <time>2016-04-29T07:21:57Z</time>
      </trkpt>
      <trkpt lat="43.62651" lon="6.37521">
        <ele>656.24</ele>
        <time>2016-04-29T07:22:00Z</time>
      </trkpt>
      <trkpt lat="43.62654" lon="6.37512">
        <ele>655.76</ele>
        <time>2016-04-29T07:22:04Z</time>
      </trkpt>
      <trkpt lat="43.62658" lon="6.37486">
        <ele>654.8</ele>
        <time>2016-04-29T07:22:19Z</time>
      </trkpt>
      <trkpt lat="43.62658" lon="6.37485">
        <ele>654.8</ele>
        <time>2016-04-29T07:22:20Z</time>
      </trkpt>
      <trkpt lat="43.62666" lon="6.37457">
        <ele>653.35</ele>
        <time>2016-04-29T07:22:34Z</time>
      </trkpt>
      <trkpt lat="43.62669" lon="6.37448">
        <ele>653.35</ele>
        <time>2016-04-29T07:22:39Z</time>
      </trkpt>
      <trkpt lat="43.62667" lon="6.37446">
        <ele>652.87</ele>
        <time>2016-04-29T07:22:44Z</time>
      </trkpt>
      <trkpt lat="43.6266" lon="6.37454">
        <ele>651.91</ele>
        <time>2016-04-29T07:22:56Z</time>
      </trkpt>
      <trkpt lat="43.62659" lon="6.37454">
        <ele>651.91</ele>
        <time>2016-04-29T07:23:07Z</time>
      </trkpt>
      <trkpt lat="43.62663" lon="6.37447">
        <ele>652.39</ele>
        <time>2016-04-29T07:23:21Z</time>
      </trkpt>
      <trkpt lat="43.62659" lon="6.37447">
        <ele>652.39</ele>
        <time>2016-04-29T07:23:26Z</time>
      </trkpt>
      <trkpt lat="43.62652" lon="6.37455">
        <ele>651.43</ele>
        <time>2016-04-29T07:23:40Z</time>
      </trkpt>
      <trkpt lat="43.62653" lon="6.37457">
        <ele>652.39</ele>
        <time>2016-04-29T07:23:46Z</time>
      </trkpt>
      <trkpt lat="43.62655" lon="6.37455">
        <ele>651.91</ele>
        <time>2016-04-29T07:23:50Z</time>
      </trkpt>
      <trkpt lat="43.62665" lon="6.37448">
        <ele>652.39</ele>
        <time>2016-04-29T07:23:59Z</time>
      </trkpt>
      <trkpt lat="43.62675" lon="6.37423">
        <ele>651.91</ele>
        <time>2016-04-29T07:24:13Z</time>
      </trkpt>
      <trkpt lat="43.62682" lon="6.37398">
        <ele>649.99</ele>
        <time>2016-04-29T07:24:27Z</time>
      </trkpt>
      <trkpt lat="43.62686" lon="6.37367">
        <ele>648.07</ele>
        <time>2016-04-29T07:24:43Z</time>
      </trkpt>
      <trkpt lat="43.62687" lon="6.37339">
        <ele>646.62</ele>
        <time>2016-04-29T07:24:58Z</time>
      </trkpt>
      <trkpt lat="43.62688" lon="6.37332">
        <ele>645.66</ele>
        <time>2016-04-29T07:25:02Z</time>
      </trkpt>
      <trkpt lat="43.62687" lon="6.37325">
        <ele>645.66</ele>
        <time>2016-04-29T07:25:06Z</time>
      </trkpt>
      <trkpt lat="43.62688" lon="6.37305">
        <ele>644.7</ele>
        <time>2016-04-29T07:25:17Z</time>
      </trkpt>
      <trkpt lat="43.62684" lon="6.37294">
        <ele>643.74</ele>
        <time>2016-04-29T07:25:30Z</time>
      </trkpt>
      <trkpt lat="43.62688" lon="6.3728">
        <ele>642.78</ele>
        <time>2016-04-29T07:25:44Z</time>
      </trkpt>
      <trkpt lat="43.62687" lon="6.37278">
        <ele>643.74</ele>
        <time>2016-04-29T07:25:46Z</time>
      </trkpt>
      <trkpt lat="43.62689" lon="6.37271">
        <ele>642.3</ele>
        <time>2016-04-29T07:25:57Z</time>
      </trkpt>
      <trkpt lat="43.6269" lon="6.37268">
        <ele>642.3</ele>
        <time>2016-04-29T07:26:00Z</time>
      </trkpt>
      <trkpt lat="43.62691" lon="6.37262">
        <ele>642.3</ele>
        <time>2016-04-29T07:26:04Z</time>
      </trkpt>
      <trkpt lat="43.62692" lon="6.37256">
        <ele>641.82</ele>
        <time>2016-04-29T07:26:09Z</time>
      </trkpt>
      <trkpt lat="43.62693" lon="6.37227">
        <ele>640.86</ele>
        <time>2016-04-29T07:26:25Z</time>
      </trkpt>
      <trkpt lat="43.62693" lon="6.37225">
        <ele>640.86</ele>
        <time>2016-04-29T07:26:26Z</time>
      </trkpt>
      <trkpt lat="43.62693" lon="6.37216">
        <ele>640.38</ele>
        <time>2016-04-29T07:26:31Z</time>
      </trkpt>
      <trkpt lat="43.6269" lon="6.37196">
        <ele>639.89</ele>
        <time>2016-04-29T07:26:43Z</time>
      </trkpt>
      <trkpt lat="43.62689" lon="6.3717">
        <ele>639.41</ele>
        <time>2016-04-29T07:26:57Z</time>
      </trkpt>
      <trkpt lat="43.62689" lon="6.37162">
        <ele>639.41</ele>
        <time>2016-04-29T07:27:02Z</time>
      </trkpt>
      <trkpt lat="43.62691" lon="6.37148">
        <ele>638.93</ele>
        <time>2016-04-29T07:27:10Z</time>
      </trkpt>
      <trkpt lat="43.6269" lon="6.37124">
        <ele>638.93</ele>
        <time>2016-04-29T07:27:22Z</time>
      </trkpt>
      <trkpt lat="43.62689" lon="6.37119">
        <ele>638.45</ele>
        <time>2016-04-29T07:27:25Z</time>
      </trkpt>
      <trkpt lat="43.6269" lon="6.37108">
        <ele>638.45</ele>
        <time>2016-04-29T07:27:30Z</time>
      </trkpt>
      <trkpt lat="43.62691" lon="6.37081">
        <ele>637.49</ele>
        <time>2016-04-29T07:27:44Z</time>
      </trkpt>
      <trkpt lat="43.62691" lon="6.37076">
        <ele>637.49</ele>
        <time>2016-04-29T07:27:47Z</time>
      </trkpt>
      <trkpt lat="43.62691" lon="6.37072">
        <ele>637.49</ele>
        <time>2016-04-29T07:27:49Z</time>
      </trkpt>
      <trkpt lat="43.62691" lon="6.37058">
        <ele>637.01</ele>
        <time>2016-04-29T07:27:56Z</time>
      </trkpt>
      <trkpt lat="43.62693" lon="6.37049">
        <ele>636.53</ele>
        <time>2016-04-29T07:28:01Z</time>
      </trkpt>
      <trkpt lat="43.62696" lon="6.37023">
        <ele>636.05</ele>
        <time>2016-04-29T07:28:16Z</time>
      </trkpt>
      <trkpt lat="43.62699" lon="6.37008">
        <ele>635.57</ele>
        <time>2016-04-29T07:28:25Z</time>
      </trkpt>
      <trkpt lat="43.62698" lon="6.36992">
        <ele>634.61</ele>
        <time>2016-04-29T07:28:35Z</time>
      </trkpt>
      <trkpt lat="43.62699" lon="6.36979">
        <ele>634.13</ele>
        <time>2016-04-29T07:28:41Z</time>
      </trkpt>
      <trkpt lat="43.62701" lon="6.3697">
        <ele>633.65</ele>
        <time>2016-04-29T07:28:46Z</time>
      </trkpt>
      <trkpt lat="43.62705" lon="6.36949">
        <ele>633.65</ele>
        <time>2016-04-29T07:29:01Z</time>
      </trkpt>
      <trkpt lat="43.6271" lon="6.36928">
        <ele>633.65</ele>
        <time>2016-04-29T07:29:10Z</time>
      </trkpt>
      <trkpt lat="43.62718" lon="6.369">
        <ele>633.65</ele>
        <time>2016-04-29T07:29:25Z</time>
      </trkpt>
      <trkpt lat="43.62722" lon="6.36891">
        <ele>633.65</ele>
        <time>2016-04-29T07:29:31Z</time>
      </trkpt>
      <trkpt lat="43.62728" lon="6.36863">
        <ele>634.61</ele>
        <time>2016-04-29T07:29:46Z</time>
      </trkpt>
      <trkpt lat="43.62731" lon="6.36852">
        <ele>633.65</ele>
        <time>2016-04-29T07:29:51Z</time>
      </trkpt>
      <trkpt lat="43.62738" lon="6.36828">
        <ele>633.65</ele>
        <time>2016-04-29T07:30:05Z</time>
      </trkpt>
      <trkpt lat="43.62738" lon="6.36826">
        <ele>633.17</ele>
        <time>2016-04-29T07:30:06Z</time>
      </trkpt>
      <trkpt lat="43.62748" lon="6.36809">
        <ele>633.17</ele>
        <time>2016-04-29T07:30:17Z</time>
      </trkpt>
      <trkpt lat="43.62753" lon="6.3679">
        <ele>633.17</ele>
        <time>2016-04-29T07:30:30Z</time>
      </trkpt>
      <trkpt lat="43.62758" lon="6.3676">
        <ele>633.65</ele>
        <time>2016-04-29T07:30:45Z</time>
      </trkpt>
      <trkpt lat="43.62762" lon="6.3674">
        <ele>634.61</ele>
        <time>2016-04-29T07:30:56Z</time>
      </trkpt>
      <trkpt lat="43.6277" lon="6.36717">
        <ele>636.53</ele>
        <time>2016-04-29T07:31:12Z</time>
      </trkpt>
      <trkpt lat="43.62769" lon="6.36713">
        <ele>636.53</ele>
        <time>2016-04-29T07:31:23Z</time>
      </trkpt>
      <trkpt lat="43.62773" lon="6.36704">
        <ele>637.01</ele>
        <time>2016-04-29T07:31:30Z</time>
      </trkpt>
      <trkpt lat="43.62782" lon="6.36686">
        <ele>637.97</ele>
        <time>2016-04-29T07:31:43Z</time>
      </trkpt>
      <trkpt lat="43.62785" lon="6.36677">
        <ele>638.45</ele>
        <time>2016-04-29T07:31:48Z</time>
      </trkpt>
      <trkpt lat="43.62787" lon="6.36673">
        <ele>638.93</ele>
        <time>2016-04-29T07:31:51Z</time>
      </trkpt>
      <trkpt lat="43.62792" lon="6.36659">
        <ele>639.89</ele>
        <time>2016-04-29T07:32:00Z</time>
      </trkpt>
      <trkpt lat="43.62802" lon="6.36638">
        <ele>640.86</ele>
        <time>2016-04-29T07:32:15Z</time>
      </trkpt>
      <trkpt lat="43.62809" lon="6.36627">
        <ele>641.82</ele>
        <time>2016-04-29T07:32:23Z</time>
      </trkpt>
      <trkpt lat="43.62813" lon="6.36611">
        <ele>642.78</ele>
        <time>2016-04-29T07:32:32Z</time>
      </trkpt>
      <trkpt lat="43.62812" lon="6.36604">
        <ele>643.26</ele>
        <time>2016-04-29T07:32:37Z</time>
      </trkpt>
      <trkpt lat="43.62817" lon="6.36576">
        <ele>643.26</ele>
        <time>2016-04-29T07:32:52Z</time>
      </trkpt>
      <trkpt lat="43.62822" lon="6.36557">
        <ele>643.26</ele>
        <time>2016-04-29T07:33:05Z</time>
      </trkpt>
      <trkpt lat="43.62822" lon="6.36546">
        <ele>643.26</ele>
        <time>2016-04-29T07:33:11Z</time>
      </trkpt>
      <trkpt lat="43.62822" lon="6.36542">
        <ele>643.26</ele>
        <time>2016-04-29T07:33:13Z</time>
      </trkpt>
      <trkpt lat="43.62825" lon="6.36519">
        <ele>642.78</ele>
        <time>2016-04-29T07:33:27Z</time>
      </trkpt>
      <trkpt lat="43.62832" lon="6.36494">
        <ele>642.3</ele>
        <time>2016-04-29T07:33:42Z</time>
      </trkpt>
      <trkpt lat="43.62838" lon="6.36474">
        <ele>642.78</ele>
        <time>2016-04-29T07:33:53Z</time>
      </trkpt>
      <trkpt lat="43.62832" lon="6.36446">
        <ele>642.3</ele>
        <time>2016-04-29T07:34:07Z</time>
      </trkpt>
      <trkpt lat="43.62824" lon="6.36427">
        <ele>641.82</ele>
        <time>2016-04-29T07:34:19Z</time>
      </trkpt>
      <trkpt lat="43.62812" lon="6.3642">
        <ele>642.3</ele>
        <time>2016-04-29T07:34:29Z</time>
      </trkpt>
      <trkpt lat="43.62788" lon="6.36412">
        <ele>643.74</ele>
        <time>2016-04-29T07:34:44Z</time>
      </trkpt>
      <trkpt lat="43.62783" lon="6.36406">
        <ele>643.74</ele>
        <time>2016-04-29T07:34:50Z</time>
      </trkpt>
      <trkpt lat="43.62786" lon="6.36386">
        <ele>644.22</ele>
        <time>2016-04-29T07:35:05Z</time>
      </trkpt>
      <trkpt lat="43.62786" lon="6.36386">
        <ele>643.74</ele>
        <time>2016-04-29T07:35:06Z</time>
      </trkpt>
      <trkpt lat="43.62786" lon="6.36384">
        <ele>643.74</ele>
        <time>2016-04-29T07:35:08Z</time>
      </trkpt>
      <trkpt lat="43.62791" lon="6.3636">
        <ele>644.22</ele>
        <time>2016-04-29T07:35:23Z</time>
      </trkpt>
      <trkpt lat="43.62789" lon="6.36354">
        <ele>644.22</ele>
        <time>2016-04-29T07:35:36Z</time>
      </trkpt>
      <trkpt lat="43.62788" lon="6.36354">
        <ele>644.22</ele>
        <time>2016-04-29T07:36:03Z</time>
      </trkpt>
      <trkpt lat="43.62787" lon="6.36354">
        <ele>644.22</ele>
        <time>2016-04-29T07:36:37Z</time>
      </trkpt>
      <trkpt lat="43.62789" lon="6.36354">
        <ele>644.22</ele>
        <time>2016-04-29T07:36:53Z</time>
      </trkpt>
      <trkpt lat="43.62794" lon="6.36348">
        <ele>644.7</ele>
        <time>2016-04-29T07:37:00Z</time>
      </trkpt>
      <trkpt lat="43.62796" lon="6.36336">
        <ele>644.7</ele>
        <time>2016-04-29T07:37:07Z</time>
      </trkpt>
      <trkpt lat="43.62802" lon="6.36313">
        <ele>645.66</ele>
        <time>2016-04-29T07:37:22Z</time>
      </trkpt>
      <trkpt lat="43.62806" lon="6.36293">
        <ele>646.14</ele>
        <time>2016-04-29T07:37:36Z</time>
      </trkpt>
      <trkpt lat="43.62811" lon="6.36281">
        <ele>646.14</ele>
        <time>2016-04-29T07:37:46Z</time>
      </trkpt>
      <trkpt lat="43.62811" lon="6.3628">
        <ele>647.1</ele>
        <time>2016-04-29T07:37:47Z</time>
      </trkpt>
      <trkpt lat="43.62809" lon="6.36274">
        <ele>645.66</ele>
        <time>2016-04-29T07:37:52Z</time>
      </trkpt>
      <trkpt lat="43.62805" lon="6.36273">
        <ele>645.18</ele>
        <time>2016-04-29T07:37:55Z</time>
      </trkpt>
      <trkpt lat="43.62802" lon="6.36273">
        <ele>645.18</ele>
        <time>2016-04-29T07:37:58Z</time>
      </trkpt>
      <trkpt lat="43.62798" lon="6.36275">
        <ele>644.7</ele>
        <time>2016-04-29T07:38:01Z</time>
      </trkpt>
      <trkpt lat="43.62785" lon="6.3629">
        <ele>644.22</ele>
        <time>2016-04-29T07:38:16Z</time>
      </trkpt>
      <trkpt lat="43.6277" lon="6.36306">
        <ele>642.78</ele>
        <time>2016-04-29T07:38:31Z</time>
      </trkpt>
      <trkpt lat="43.62769" lon="6.36307">
        <ele>642.78</ele>
        <time>2016-04-29T07:38:32Z</time>
      </trkpt>
      <trkpt lat="43.62766" lon="6.36309">
        <ele>642.78</ele>
        <time>2016-04-29T07:38:35Z</time>
      </trkpt>
      <trkpt lat="43.62747" lon="6.3632">
        <ele>641.34</ele>
        <time>2016-04-29T07:38:50Z</time>
      </trkpt>
      <trkpt lat="43.62734" lon="6.36326">
        <ele>639.89</ele>
        <time>2016-04-29T07:39:02Z</time>
      </trkpt>
      <trkpt lat="43.62725" lon="6.36329">
        <ele>639.89</ele>
        <time>2016-04-29T07:39:10Z</time>
      </trkpt>
      <trkpt lat="43.62703" lon="6.36332">
        <ele>639.41</ele>
        <time>2016-04-29T07:39:27Z</time>
      </trkpt>
      <trkpt lat="43.627" lon="6.36334">
        <ele>638.45</ele>
        <time>2016-04-29T07:39:38Z</time>
      </trkpt>
      <trkpt lat="43.62699" lon="6.36336">
        <ele>638.93</ele>
        <time>2016-04-29T07:39:51Z</time>
      </trkpt>
      <trkpt lat="43.627" lon="6.36337">
        <ele>638.93</ele>
        <time>2016-04-29T07:40:03Z</time>
      </trkpt>
      <trkpt lat="43.62701" lon="6.36336">
        <ele>638.93</ele>
        <time>2016-04-29T07:40:14Z</time>
      </trkpt>
      <trkpt lat="43.62697" lon="6.3634">
        <ele>638.45</ele>
        <time>2016-04-29T07:40:19Z</time>
      </trkpt>
      <trkpt lat="43.62679" lon="6.36355">
        <ele>637.49</ele>
        <time>2016-04-29T07:40:35Z</time>
      </trkpt>
      <trkpt lat="43.62663" lon="6.36369">
        <ele>636.05</ele>
        <time>2016-04-29T07:40:48Z</time>
      </trkpt>
      <trkpt lat="43.62646" lon="6.36388">
        <ele>634.61</ele>
        <time>2016-04-29T07:41:03Z</time>
      </trkpt>
      <trkpt lat="43.6263" lon="6.36403">
        <ele>633.17</ele>
        <time>2016-04-29T07:41:18Z</time>
      </trkpt>
      <trkpt lat="43.62621" lon="6.36411">
        <ele>631.72</ele>
        <time>2016-04-29T07:41:26Z</time>
      </trkpt>
      <trkpt lat="43.62615" lon="6.36418">
        <ele>631.72</ele>
        <time>2016-04-29T07:41:30Z</time>
      </trkpt>
      <trkpt lat="43.62608" lon="6.36429">
        <ele>631.24</ele>
        <time>2016-04-29T07:41:38Z</time>
      </trkpt>
      <trkpt lat="43.62608" lon="6.36433">
        <ele>630.76</ele>
        <time>2016-04-29T07:41:54Z</time>
      </trkpt>
      <trkpt lat="43.62608" lon="6.36433">
        <ele>631.24</ele>
        <time>2016-04-29T07:41:56Z</time>
      </trkpt>
      <trkpt lat="43.62602" lon="6.36436">
        <ele>630.76</ele>
        <time>2016-04-29T07:42:01Z</time>
      </trkpt>
      <trkpt lat="43.62587" lon="6.36449">
        <ele>629.8</ele>
        <time>2016-04-29T07:42:14Z</time>
      </trkpt>
      <trkpt lat="43.62584" lon="6.36455">
        <ele>629.32</ele>
        <time>2016-04-29T07:42:25Z</time>
      </trkpt>
      <trkpt lat="43.62581" lon="6.36455">
        <ele>629.32</ele>
        <time>2016-04-29T07:42:28Z</time>
      </trkpt>
      <trkpt lat="43.62574" lon="6.36454">
        <ele>628.84</ele>
        <time>2016-04-29T07:42:33Z</time>
      </trkpt>
      <trkpt lat="43.62563" lon="6.36453">
        <ele>628.36</ele>
        <time>2016-04-29T07:42:48Z</time>
      </trkpt>
      <trkpt lat="43.62563" lon="6.36453">
        <ele>628.84</ele>
        <time>2016-04-29T07:42:54Z</time>
      </trkpt>
      <trkpt lat="43.62562" lon="6.36452">
        <ele>628.36</ele>
        <time>2016-04-29T07:42:56Z</time>
      </trkpt>
      <trkpt lat="43.62556" lon="6.36449">
        <ele>627.88</ele>
        <time>2016-04-29T07:43:01Z</time>
      </trkpt>
      <trkpt lat="43.62539" lon="6.36442">
        <ele>627.4</ele>
        <time>2016-04-29T07:43:13Z</time>
      </trkpt>
      <trkpt lat="43.62538" lon="6.36442">
        <ele>627.4</ele>
        <time>2016-04-29T07:43:14Z</time>
      </trkpt>
      <trkpt lat="43.62517" lon="6.36434">
        <ele>625.47</ele>
        <time>2016-04-29T07:43:29Z</time>
      </trkpt>
      <trkpt lat="43.62515" lon="6.36434">
        <ele>625.47</ele>
        <time>2016-04-29T07:43:31Z</time>
      </trkpt>
      <trkpt lat="43.62509" lon="6.36431">
        <ele>625.47</ele>
        <time>2016-04-29T07:43:36Z</time>
      </trkpt>
      <trkpt lat="43.62485" lon="6.36424">
        <ele>624.51</ele>
        <time>2016-04-29T07:43:52Z</time>
      </trkpt>
      <trkpt lat="43.62464" lon="6.36415">
        <ele>623.07</ele>
        <time>2016-04-29T07:44:08Z</time>
      </trkpt>
      <trkpt lat="43.62447" lon="6.36409">
        <ele>622.11</ele>
        <time>2016-04-29T07:44:21Z</time>
      </trkpt>
      <trkpt lat="43.62427" lon="6.36399">
        <ele>621.63</ele>
        <time>2016-04-29T07:44:35Z</time>
      </trkpt>
      <trkpt lat="43.62407" lon="6.3639">
        <ele>620.19</ele>
        <time>2016-04-29T07:44:49Z</time>
      </trkpt>
      <trkpt lat="43.62405" lon="6.36389">
        <ele>619.71</ele>
        <time>2016-04-29T07:44:51Z</time>
      </trkpt>
      <trkpt lat="43.62403" lon="6.36391">
        <ele>620.19</ele>
        <time>2016-04-29T07:44:58Z</time>
      </trkpt>
      <trkpt lat="43.62399" lon="6.36388">
        <ele>619.71</ele>
        <time>2016-04-29T07:45:02Z</time>
      </trkpt>
      <trkpt lat="43.62383" lon="6.36388">
        <ele>618.75</ele>
        <time>2016-04-29T07:45:16Z</time>
      </trkpt>
      <trkpt lat="43.62383" lon="6.36388">
        <ele>618.75</ele>
        <time>2016-04-29T07:45:19Z</time>
      </trkpt>
      <trkpt lat="43.62384" lon="6.36392">
        <ele>618.75</ele>
        <time>2016-04-29T07:45:31Z</time>
      </trkpt>
      <trkpt lat="43.62383" lon="6.36392">
        <ele>618.75</ele>
        <time>2016-04-29T07:45:35Z</time>
      </trkpt>
      <trkpt lat="43.6238" lon="6.36394">
        <ele>618.75</ele>
        <time>2016-04-29T07:45:39Z</time>
      </trkpt>
      <trkpt lat="43.62377" lon="6.36418">
        <ele>619.23</ele>
        <time>2016-04-29T07:45:55Z</time>
      </trkpt>
      <trkpt lat="43.62376" lon="6.36422">
        <ele>619.23</ele>
        <time>2016-04-29T07:45:58Z</time>
      </trkpt>
      <trkpt lat="43.62377" lon="6.36438">
        <ele>618.75</ele>
        <time>2016-04-29T07:46:14Z</time>
      </trkpt>
      <trkpt lat="43.62381" lon="6.36453">
        <ele>618.75</ele>
        <time>2016-04-29T07:46:27Z</time>
      </trkpt>
      <trkpt lat="43.62381" lon="6.36455">
        <ele>618.75</ele>
        <time>2016-04-29T07:46:43Z</time>
      </trkpt>
      <trkpt lat="43.62382" lon="6.36458">
        <ele>619.71</ele>
        <time>2016-04-29T07:47:02Z</time>
      </trkpt>
      <trkpt lat="43.62382" lon="6.36458">
        <ele>619.71</ele>
        <time>2016-04-29T07:47:05Z</time>
      </trkpt>
      <trkpt lat="43.62387" lon="6.36464">
        <ele>619.71</ele>
        <time>2016-04-29T07:47:11Z</time>
      </trkpt>
      <trkpt lat="43.6239" lon="6.36488">
        <ele>618.75</ele>
        <time>2016-04-29T07:47:24Z</time>
      </trkpt>
      <trkpt lat="43.62395" lon="6.36495">
        <ele>619.23</ele>
        <time>2016-04-29T07:47:38Z</time>
      </trkpt>
      <trkpt lat="43.62395" lon="6.36489">
        <ele>619.71</ele>
        <time>2016-04-29T07:47:49Z</time>
      </trkpt>
      <trkpt lat="43.62393" lon="6.36491">
        <ele>619.71</ele>
        <time>2016-04-29T07:47:53Z</time>
      </trkpt>
      <trkpt lat="43.62387" lon="6.36492">
        <ele>618.26</ele>
        <time>2016-04-29T07:48:10Z</time>
      </trkpt>
      <trkpt lat="43.62387" lon="6.36497">
        <ele>617.78</ele>
        <time>2016-04-29T07:48:22Z</time>
      </trkpt>
      <trkpt lat="43.62395" lon="6.36503">
        <ele>618.75</ele>
        <time>2016-04-29T07:48:37Z</time>
      </trkpt>
      <trkpt lat="43.62394" lon="6.36497">
        <ele>618.75</ele>
        <time>2016-04-29T07:48:49Z</time>
      </trkpt>
      <trkpt lat="43.6239" lon="6.3649">
        <ele>619.23</ele>
        <time>2016-04-29T07:48:59Z</time>
      </trkpt>
      <trkpt lat="43.62391" lon="6.36487">
        <ele>619.23</ele>
        <time>2016-04-29T07:49:02Z</time>
      </trkpt>
      <trkpt lat="43.62392" lon="6.36485">
        <ele>619.23</ele>
        <time>2016-04-29T07:49:04Z</time>
      </trkpt>
      <trkpt lat="43.62394" lon="6.36481">
        <ele>619.23</ele>
        <time>2016-04-29T07:49:07Z</time>
      </trkpt>
      <trkpt lat="43.62392" lon="6.36475">
        <ele>619.71</ele>
        <time>2016-04-29T07:49:12Z</time>
      </trkpt>
      <trkpt lat="43.62393" lon="6.3647">
        <ele>619.71</ele>
        <time>2016-04-29T07:49:16Z</time>
      </trkpt>
      <trkpt lat="43.62393" lon="6.36468">
        <ele>619.71</ele>
        <time>2016-04-29T07:49:18Z</time>
      </trkpt>
      <trkpt lat="43.62389" lon="6.36464">
        <ele>619.71</ele>
        <time>2016-04-29T07:49:29Z</time>
      </trkpt>
      <trkpt lat="43.62385" lon="6.36462">
        <ele>618.26</ele>
        <time>2016-04-29T07:49:47Z</time>
      </trkpt>
      <trkpt lat="43.62385" lon="6.36462">
        <ele>618.75</ele>
        <time>2016-04-29T07:50:10Z</time>
      </trkpt>
      <trkpt lat="43.62382" lon="6.36455">
        <ele>618.75</ele>
        <time>2016-04-29T07:50:25Z</time>
      </trkpt>
      <trkpt lat="43.62378" lon="6.36446">
        <ele>618.26</ele>
        <time>2016-04-29T07:50:38Z</time>
      </trkpt>
      <trkpt lat="43.62376" lon="6.36444">
        <ele>618.26</ele>
        <time>2016-04-29T07:50:51Z</time>
      </trkpt>
      <trkpt lat="43.62377" lon="6.36444">
        <ele>618.75</ele>
        <time>2016-04-29T07:51:04Z</time>
      </trkpt>
      <trkpt lat="43.6238" lon="6.36436">
        <ele>618.75</ele>
        <time>2016-04-29T07:51:09Z</time>
      </trkpt>
      <trkpt lat="43.62384" lon="6.36414">
        <ele>619.23</ele>
        <time>2016-04-29T07:51:22Z</time>
      </trkpt>
      <trkpt lat="43.62385" lon="6.36405">
        <ele>619.23</ele>
        <time>2016-04-29T07:51:28Z</time>
      </trkpt>
      <trkpt lat="43.62385" lon="6.364">
        <ele>618.75</ele>
        <time>2016-04-29T07:51:31Z</time>
      </trkpt>
      <trkpt lat="43.62388" lon="6.36389">
        <ele>618.26</ele>
        <time>2016-04-29T07:51:38Z</time>
      </trkpt>
      <trkpt lat="43.62385" lon="6.36383">
        <ele>618.26</ele>
        <time>2016-04-29T07:51:42Z</time>
      </trkpt>
      <trkpt lat="43.6238" lon="6.36382">
        <ele>617.78</ele>
        <time>2016-04-29T07:51:48Z</time>
      </trkpt>
      <trkpt lat="43.62377" lon="6.3638">
        <ele>617.78</ele>
        <time>2016-04-29T07:51:51Z</time>
      </trkpt>
      <trkpt lat="43.62368" lon="6.36375">
        <ele>616.82</ele>
        <time>2016-04-29T07:52:00Z</time>
      </trkpt>
      <trkpt lat="43.62366" lon="6.36375">
        <ele>617.78</ele>
        <time>2016-04-29T07:52:02Z</time>
      </trkpt>
      <trkpt lat="43.62348" lon="6.36371">
        <ele>615.86</ele>
        <time>2016-04-29T07:52:18Z</time>
      </trkpt>
      <trkpt lat="43.6234" lon="6.36374">
        <ele>615.38</ele>
        <time>2016-04-29T07:52:32Z</time>
      </trkpt>
      <trkpt lat="43.62334" lon="6.36376">
        <ele>615.38</ele>
        <time>2016-04-29T07:52:46Z</time>
      </trkpt>
      <trkpt lat="43.62332" lon="6.36376">
        <ele>615.38</ele>
        <time>2016-04-29T07:52:58Z</time>
      </trkpt>
      <trkpt lat="43.62335" lon="6.36375">
        <ele>614.9</ele>
        <time>2016-04-29T07:53:11Z</time>
      </trkpt>
      <trkpt lat="43.62335" lon="6.36373">
        <ele>614.9</ele>
        <time>2016-04-29T07:53:32Z</time>
      </trkpt>
      <trkpt lat="43.62334" lon="6.36373">
        <ele>615.86</ele>
        <time>2016-04-29T07:54:02Z</time>
      </trkpt>
      <trkpt lat="43.62331" lon="6.36373">
        <ele>614.9</ele>
        <time>2016-04-29T07:54:15Z</time>
      </trkpt>
      <trkpt lat="43.62326" lon="6.36372">
        <ele>615.38</ele>
        <time>2016-04-29T07:54:21Z</time>
      </trkpt>
      <trkpt lat="43.62318" lon="6.36372">
        <ele>615.86</ele>
        <time>2016-04-29T07:54:37Z</time>
      </trkpt>
      <trkpt lat="43.62317" lon="6.36372">
        <ele>615.86</ele>
        <time>2016-04-29T07:54:48Z</time>
      </trkpt>
      <trkpt lat="43.62316" lon="6.36372">
        <ele>616.34</ele>
        <time>2016-04-29T07:55:05Z</time>
      </trkpt>
      <trkpt lat="43.62317" lon="6.36374">
        <ele>615.38</ele>
        <time>2016-04-29T07:55:28Z</time>
      </trkpt>
      <trkpt lat="43.62317" lon="6.36374">
        <ele>615.86</ele>
        <time>2016-04-29T07:55:44Z</time>
      </trkpt>
      <trkpt lat="43.62322" lon="6.36374">
        <ele>615.38</ele>
        <time>2016-04-29T07:55:55Z</time>
      </trkpt>
      <trkpt lat="43.62317" lon="6.36373">
        <ele>615.86</ele>
        <time>2016-04-29T07:56:10Z</time>
      </trkpt>
      <trkpt lat="43.62317" lon="6.36373">
        <ele>615.86</ele>
        <time>2016-04-29T07:56:25Z</time>
      </trkpt>
      <trkpt lat="43.62328" lon="6.36375">
        <ele>614.9</ele>
        <time>2016-04-29T07:56:40Z</time>
      </trkpt>
      <trkpt lat="43.62331" lon="6.36379">
        <ele>614.42</ele>
        <time>2016-04-29T07:56:56Z</time>
      </trkpt>
      <trkpt lat="43.62332" lon="6.36377">
        <ele>614.42</ele>
        <time>2016-04-29T07:57:10Z</time>
      </trkpt>
      <trkpt lat="43.62336" lon="6.3637">
        <ele>614.9</ele>
        <time>2016-04-29T07:57:21Z</time>
      </trkpt>
      <trkpt lat="43.62337" lon="6.36369">
        <ele>614.9</ele>
        <time>2016-04-29T07:57:32Z</time>
      </trkpt>
      <trkpt lat="43.62329" lon="6.36372">
        <ele>614.9</ele>
        <time>2016-04-29T07:57:44Z</time>
      </trkpt>
      <trkpt lat="43.62318" lon="6.36371">
        <ele>615.38</ele>
        <time>2016-04-29T07:57:56Z</time>
      </trkpt>
      <trkpt lat="43.62313" lon="6.36372">
        <ele>616.82</ele>
        <time>2016-04-29T07:58:03Z</time>
      </trkpt>
      <trkpt lat="43.62308" lon="6.36375">
        <ele>616.34</ele>
        <time>2016-04-29T07:58:17Z</time>
      </trkpt>
      <trkpt lat="43.623" lon="6.3638">
        <ele>616.34</ele>
        <time>2016-04-29T07:58:26Z</time>
      </trkpt>
      <trkpt lat="43.62288" lon="6.36398">
        <ele>616.82</ele>
        <time>2016-04-29T07:58:39Z</time>
      </trkpt>
      <trkpt lat="43.6228" lon="6.36413">
        <ele>616.82</ele>
        <time>2016-04-29T07:58:49Z</time>
      </trkpt>
      <trkpt lat="43.62262" lon="6.36426">
        <ele>616.82</ele>
        <time>2016-04-29T07:59:04Z</time>
      </trkpt>
      <trkpt lat="43.62257" lon="6.36428">
        <ele>617.3</ele>
        <time>2016-04-29T07:59:09Z</time>
      </trkpt>
      <trkpt lat="43.62254" lon="6.36429">
        <ele>616.82</ele>
        <time>2016-04-29T07:59:12Z</time>
      </trkpt>
      <trkpt lat="43.62242" lon="6.36438">
        <ele>617.3</ele>
        <time>2016-04-29T07:59:25Z</time>
      </trkpt>
      <trkpt lat="43.62239" lon="6.3644">
        <ele>617.3</ele>
        <time>2016-04-29T07:59:39Z</time>
      </trkpt>
      <trkpt lat="43.62231" lon="6.36444">
        <ele>614.9</ele>
        <time>2016-04-29T07:59:51Z</time>
      </trkpt>
      <trkpt lat="43.6223" lon="6.36443">
        <ele>621.63</ele>
        <time>2016-04-29T07:59:52Z</time>
      </trkpt>
      <trkpt lat="43.6223" lon="6.36444">
        <ele>618.26</ele>
        <time>2016-04-29T07:59:53Z</time>
      </trkpt>
      <trkpt lat="43.62218" lon="6.36447">
        <ele>618.75</ele>
        <time>2016-04-29T08:00:07Z</time>
      </trkpt>
      <trkpt lat="43.62211" lon="6.36447">
        <ele>619.71</ele>
        <time>2016-04-29T08:00:21Z</time>
      </trkpt>
      <trkpt lat="43.62212" lon="6.36447">
        <ele>619.71</ele>
        <time>2016-04-29T08:00:34Z</time>
      </trkpt>
      <trkpt lat="43.62212" lon="6.36447">
        <ele>619.71</ele>
        <time>2016-04-29T08:00:59Z</time>
      </trkpt>
      <trkpt lat="43.62211" lon="6.36446">
        <ele>619.71</ele>
        <time>2016-04-29T08:01:15Z</time>
      </trkpt>
      <trkpt lat="43.6221" lon="6.36446">
        <ele>619.71</ele>
        <time>2016-04-29T08:01:17Z</time>
      </trkpt>
      <trkpt lat="43.62204" lon="6.36445">
        <ele>620.19</ele>
        <time>2016-04-29T08:01:30Z</time>
      </trkpt>
      <trkpt lat="43.62203" lon="6.36446">
        <ele>620.19</ele>
        <time>2016-04-29T08:01:55Z</time>
      </trkpt>
      <trkpt lat="43.62213" lon="6.36447">
        <ele>619.23</ele>
        <time>2016-04-29T08:02:10Z</time>
      </trkpt>
      <trkpt lat="43.62237" lon="6.36448">
        <ele>618.26</ele>
        <time>2016-04-29T08:02:27Z</time>
      </trkpt>
      <trkpt lat="43.62238" lon="6.36451">
        <ele>618.26</ele>
        <time>2016-04-29T08:02:40Z</time>
      </trkpt>
      <trkpt lat="43.62236" lon="6.3645">
        <ele>618.26</ele>
        <time>2016-04-29T08:02:56Z</time>
      </trkpt>
      <trkpt lat="43.6224" lon="6.3645">
        <ele>617.78</ele>
        <time>2016-04-29T08:03:09Z</time>
      </trkpt>
      <trkpt lat="43.62238" lon="6.36448">
        <ele>618.26</ele>
        <time>2016-04-29T08:03:23Z</time>
      </trkpt>
      <trkpt lat="43.62236" lon="6.36447">
        <ele>617.78</ele>
        <time>2016-04-29T08:03:41Z</time>
      </trkpt>
      <trkpt lat="43.62236" lon="6.36447">
        <ele>617.78</ele>
        <time>2016-04-29T08:03:57Z</time>
      </trkpt>
      <trkpt lat="43.62236" lon="6.36446">
        <ele>619.23</ele>
        <time>2016-04-29T08:04:05Z</time>
      </trkpt>
      <trkpt lat="43.62234" lon="6.36447">
        <ele>618.26</ele>
        <time>2016-04-29T08:04:17Z</time>
      </trkpt>
      <trkpt lat="43.62235" lon="6.36448">
        <ele>617.78</ele>
        <time>2016-04-29T08:04:27Z</time>
      </trkpt>
      <trkpt lat="43.62236" lon="6.36447">
        <ele>618.26</ele>
        <time>2016-04-29T08:04:38Z</time>
      </trkpt>
      <trkpt lat="43.62234" lon="6.36448">
        <ele>618.26</ele>
        <time>2016-04-29T08:04:47Z</time>
      </trkpt>
      <trkpt lat="43.6223" lon="6.36454">
        <ele>618.26</ele>
        <time>2016-04-29T08:04:52Z</time>
      </trkpt>
      <trkpt lat="43.6222" lon="6.36468">
        <ele>617.3</ele>
        <time>2016-04-29T08:05:03Z</time>
      </trkpt>
      <trkpt lat="43.6221" lon="6.3648">
        <ele>621.15</ele>
        <time>2016-04-29T08:05:14Z</time>
      </trkpt>
      <trkpt lat="43.6221" lon="6.36481">
        <ele>618.75</ele>
        <time>2016-04-29T08:05:15Z</time>
      </trkpt>
      <trkpt lat="43.62206" lon="6.36487">
        <ele>618.26</ele>
        <time>2016-04-29T08:05:19Z</time>
      </trkpt>
      <trkpt lat="43.62195" lon="6.36504">
        <ele>618.26</ele>
        <time>2016-04-29T08:05:31Z</time>
      </trkpt>
      <trkpt lat="43.6219" lon="6.36512">
        <ele>617.78</ele>
        <time>2016-04-29T08:05:36Z</time>
      </trkpt>
      <trkpt lat="43.62177" lon="6.36525">
        <ele>618.75</ele>
        <time>2016-04-29T08:05:49Z</time>
      </trkpt>
      <trkpt lat="43.62163" lon="6.3654">
        <ele>618.26</ele>
        <time>2016-04-29T08:06:03Z</time>
      </trkpt>
      <trkpt lat="43.62162" lon="6.36541">
        <ele>621.15</ele>
        <time>2016-04-29T08:06:04Z</time>
      </trkpt>
      <trkpt lat="43.62157" lon="6.36544">
        <ele>620.19</ele>
        <time>2016-04-29T08:06:09Z</time>
      </trkpt>
      <trkpt lat="43.62145" lon="6.36553">
        <ele>621.63</ele>
        <time>2016-04-29T08:06:22Z</time>
      </trkpt>
      <trkpt lat="43.62131" lon="6.36556">
        <ele>622.11</ele>
        <time>2016-04-29T08:06:38Z</time>
      </trkpt>
      <trkpt lat="43.62123" lon="6.3656">
        <ele>623.07</ele>
        <time>2016-04-29T08:06:48Z</time>
      </trkpt>
      <trkpt lat="43.62108" lon="6.36561">
        <ele>623.55</ele>
        <time>2016-04-29T08:06:57Z</time>
      </trkpt>
      <trkpt lat="43.62103" lon="6.36562">
        <ele>624.03</ele>
        <time>2016-04-29T08:07:00Z</time>
      </trkpt>
      <trkpt lat="43.62094" lon="6.36565">
        <ele>624.03</ele>
        <time>2016-04-29T08:07:08Z</time>
      </trkpt>
      <trkpt lat="43.62084" lon="6.36574">
        <ele>624.51</ele>
        <time>2016-04-29T08:07:18Z</time>
      </trkpt>
      <trkpt lat="43.62081" lon="6.36575">
        <ele>624.51</ele>
        <time>2016-04-29T08:07:21Z</time>
      </trkpt>
      <trkpt lat="43.62079" lon="6.36576">
        <ele>624.51</ele>
        <time>2016-04-29T08:07:23Z</time>
      </trkpt>
      <trkpt lat="43.62074" lon="6.36576">
        <ele>624.51</ele>
        <time>2016-04-29T08:07:26Z</time>
      </trkpt>
      <trkpt lat="43.62061" lon="6.36578">
        <ele>624.99</ele>
        <time>2016-04-29T08:07:35Z</time>
      </trkpt>
      <trkpt lat="43.62046" lon="6.36584">
        <ele>624.99</ele>
        <time>2016-04-29T08:07:49Z</time>
      </trkpt>
      <trkpt lat="43.62032" lon="6.36592">
        <ele>625.47</ele>
        <time>2016-04-29T08:07:59Z</time>
      </trkpt>
      <trkpt lat="43.62025" lon="6.36593">
        <ele>625.47</ele>
        <time>2016-04-29T08:08:03Z</time>
      </trkpt>
      <trkpt lat="43.62019" lon="6.36596">
        <ele>625.47</ele>
        <time>2016-04-29T08:08:07Z</time>
      </trkpt>
      <trkpt lat="43.62008" lon="6.36613">
        <ele>625.96</ele>
        <time>2016-04-29T08:08:18Z</time>
      </trkpt>
      <trkpt lat="43.62003" lon="6.36614">
        <ele>626.44</ele>
        <time>2016-04-29T08:08:23Z</time>
      </trkpt>
      <trkpt lat="43.61986" lon="6.3662">
        <ele>626.92</ele>
        <time>2016-04-29T08:08:39Z</time>
      </trkpt>
      <trkpt lat="43.61966" lon="6.3663">
        <ele>627.4</ele>
        <time>2016-04-29T08:08:55Z</time>
      </trkpt>
      <trkpt lat="43.61954" lon="6.36636">
        <ele>627.4</ele>
        <time>2016-04-29T08:09:05Z</time>
      </trkpt>
      <trkpt lat="43.61938" lon="6.36647">
        <ele>627.88</ele>
        <time>2016-04-29T08:09:21Z</time>
      </trkpt>
      <trkpt lat="43.61915" lon="6.36656">
        <ele>628.84</ele>
        <time>2016-04-29T08:09:37Z</time>
      </trkpt>
      <trkpt lat="43.61898" lon="6.36667">
        <ele>629.8</ele>
        <time>2016-04-29T08:09:52Z</time>
      </trkpt>
      <trkpt lat="43.61887" lon="6.36673">
        <ele>631.72</ele>
        <time>2016-04-29T08:10:04Z</time>
      </trkpt>
      <trkpt lat="43.61876" lon="6.36682">
        <ele>631.24</ele>
        <time>2016-04-29T08:10:14Z</time>
      </trkpt>
      <trkpt lat="43.61856" lon="6.36697">
        <ele>631.72</ele>
        <time>2016-04-29T08:10:31Z</time>
      </trkpt>
      <trkpt lat="43.61841" lon="6.36708">
        <ele>631.72</ele>
        <time>2016-04-29T08:10:45Z</time>
      </trkpt>
      <trkpt lat="43.6183" lon="6.36719">
        <ele>632.2</ele>
        <time>2016-04-29T08:10:59Z</time>
      </trkpt>
      <trkpt lat="43.61818" lon="6.36723">
        <ele>632.2</ele>
        <time>2016-04-29T08:11:12Z</time>
      </trkpt>
      <trkpt lat="43.61813" lon="6.36724">
        <ele>632.2</ele>
        <time>2016-04-29T08:11:15Z</time>
      </trkpt>
      <trkpt lat="43.61805" lon="6.36729">
        <ele>632.2</ele>
        <time>2016-04-29T08:11:31Z</time>
      </trkpt>
      <trkpt lat="43.61807" lon="6.36733">
        <ele>632.2</ele>
        <time>2016-04-29T08:11:49Z</time>
      </trkpt>
      <trkpt lat="43.61807" lon="6.36732">
        <ele>633.17</ele>
        <time>2016-04-29T08:12:04Z</time>
      </trkpt>
      <trkpt lat="43.61809" lon="6.36733">
        <ele>632.68</ele>
        <time>2016-04-29T08:12:15Z</time>
      </trkpt>
      <trkpt lat="43.61807" lon="6.3673">
        <ele>632.68</ele>
        <time>2016-04-29T08:12:29Z</time>
      </trkpt>
      <trkpt lat="43.61805" lon="6.3673">
        <ele>632.68</ele>
        <time>2016-04-29T08:12:45Z</time>
      </trkpt>
      <trkpt lat="43.61803" lon="6.36729">
        <ele>632.68</ele>
        <time>2016-04-29T08:12:49Z</time>
      </trkpt>
      <trkpt lat="43.618" lon="6.36731">
        <ele>632.68</ele>
        <time>2016-04-29T08:12:52Z</time>
      </trkpt>
      <trkpt lat="43.61793" lon="6.36735">
        <ele>629.32</ele>
        <time>2016-04-29T08:12:58Z</time>
      </trkpt>
      <trkpt lat="43.61792" lon="6.36736">
        <ele>633.17</ele>
        <time>2016-04-29T08:12:59Z</time>
      </trkpt>
      <trkpt lat="43.61782" lon="6.36743">
        <ele>629.32</ele>
        <time>2016-04-29T08:13:11Z</time>
      </trkpt>
      <trkpt lat="43.6178" lon="6.36744">
        <ele>634.13</ele>
        <time>2016-04-29T08:13:12Z</time>
      </trkpt>
      <trkpt lat="43.61779" lon="6.36745">
        <ele>632.68</ele>
        <time>2016-04-29T08:13:13Z</time>
      </trkpt>
      <trkpt lat="43.61772" lon="6.36747">
        <ele>630.28</ele>
        <time>2016-04-29T08:13:19Z</time>
      </trkpt>
      <trkpt lat="43.6177" lon="6.36748">
        <ele>632.2</ele>
        <time>2016-04-29T08:13:21Z</time>
      </trkpt>
      <trkpt lat="43.61759" lon="6.3675">
        <ele>631.72</ele>
        <time>2016-04-29T08:13:31Z</time>
      </trkpt>
      <trkpt lat="43.61746" lon="6.36749">
        <ele>632.2</ele>
        <time>2016-04-29T08:13:43Z</time>
      </trkpt>
      <trkpt lat="43.61734" lon="6.36748">
        <ele>631.72</ele>
        <time>2016-04-29T08:13:56Z</time>
      </trkpt>
      <trkpt lat="43.61725" lon="6.36749">
        <ele>631.72</ele>
        <time>2016-04-29T08:14:06Z</time>
      </trkpt>
      <trkpt lat="43.61711" lon="6.36749">
        <ele>631.72</ele>
        <time>2016-04-29T08:14:21Z</time>
      </trkpt>
      <trkpt lat="43.61701" lon="6.36751">
        <ele>632.2</ele>
        <time>2016-04-29T08:14:33Z</time>
      </trkpt>
      <trkpt lat="43.61695" lon="6.36751">
        <ele>632.2</ele>
        <time>2016-04-29T08:14:38Z</time>
      </trkpt>
      <trkpt lat="43.61684" lon="6.3675">
        <ele>632.2</ele>
        <time>2016-04-29T08:14:48Z</time>
      </trkpt>
      <trkpt lat="43.61665" lon="6.3675">
        <ele>631.72</ele>
        <time>2016-04-29T08:15:03Z</time>
      </trkpt>
      <trkpt lat="43.61646" lon="6.36746">
        <ele>631.72</ele>
        <time>2016-04-29T08:15:18Z</time>
      </trkpt>
      <trkpt lat="43.61637" lon="6.36749">
        <ele>631.72</ele>
        <time>2016-04-29T08:15:26Z</time>
      </trkpt>
      <trkpt lat="43.61625" lon="6.36751">
        <ele>631.72</ele>
        <time>2016-04-29T08:15:35Z</time>
      </trkpt>
      <trkpt lat="43.6162" lon="6.36753">
        <ele>631.72</ele>
        <time>2016-04-29T08:15:40Z</time>
      </trkpt>
      <trkpt lat="43.61606" lon="6.36755">
        <ele>630.76</ele>
        <time>2016-04-29T08:15:51Z</time>
      </trkpt>
      <trkpt lat="43.61592" lon="6.36753">
        <ele>630.76</ele>
        <time>2016-04-29T08:16:04Z</time>
      </trkpt>
      <trkpt lat="43.61583" lon="6.36751">
        <ele>630.76</ele>
        <time>2016-04-29T08:16:12Z</time>
      </trkpt>
      <trkpt lat="43.61568" lon="6.36751">
        <ele>629.8</ele>
        <time>2016-04-29T08:16:26Z</time>
      </trkpt>
      <trkpt lat="43.61567" lon="6.36751">
        <ele>629.8</ele>
        <time>2016-04-29T08:16:27Z</time>
      </trkpt>
      <trkpt lat="43.61552" lon="6.36744">
        <ele>629.32</ele>
        <time>2016-04-29T08:16:38Z</time>
      </trkpt>
      <trkpt lat="43.61548" lon="6.3674">
        <ele>628.84</ele>
        <time>2016-04-29T08:16:42Z</time>
      </trkpt>
      <trkpt lat="43.61536" lon="6.36731">
        <ele>628.84</ele>
        <time>2016-04-29T08:16:54Z</time>
      </trkpt>
      <trkpt lat="43.61529" lon="6.36728">
        <ele>628.36</ele>
        <time>2016-04-29T08:16:59Z</time>
      </trkpt>
      <trkpt lat="43.61527" lon="6.36728">
        <ele>628.36</ele>
        <time>2016-04-29T08:17:01Z</time>
      </trkpt>
      <trkpt lat="43.61512" lon="6.36725">
        <ele>627.88</ele>
        <time>2016-04-29T08:17:14Z</time>
      </trkpt>
      <trkpt lat="43.61501" lon="6.36722">
        <ele>626.92</ele>
        <time>2016-04-29T08:17:27Z</time>
      </trkpt>
      <trkpt lat="43.61487" lon="6.36713">
        <ele>625.96</ele>
        <time>2016-04-29T08:17:40Z</time>
      </trkpt>
      <trkpt lat="43.61486" lon="6.36713">
        <ele>625.96</ele>
        <time>2016-04-29T08:17:41Z</time>
      </trkpt>
      <trkpt lat="43.61483" lon="6.36712">
        <ele>625.47</ele>
        <time>2016-04-29T08:17:44Z</time>
      </trkpt>
      <trkpt lat="43.61472" lon="6.36707">
        <ele>624.03</ele>
        <time>2016-04-29T08:17:55Z</time>
      </trkpt>
      <trkpt lat="43.61462" lon="6.36697">
        <ele>623.07</ele>
        <time>2016-04-29T08:18:06Z</time>
      </trkpt>
      <trkpt lat="43.61452" lon="6.36694">
        <ele>621.63</ele>
        <time>2016-04-29T08:18:20Z</time>
      </trkpt>
      <trkpt lat="43.61446" lon="6.36696">
        <ele>620.67</ele>
        <time>2016-04-29T08:18:31Z</time>
      </trkpt>
      <trkpt lat="43.6144" lon="6.36703">
        <ele>620.19</ele>
        <time>2016-04-29T08:18:42Z</time>
      </trkpt>
      <trkpt lat="43.61438" lon="6.36704">
        <ele>620.19</ele>
        <time>2016-04-29T08:18:44Z</time>
      </trkpt>
      <trkpt lat="43.6143" lon="6.36708">
        <ele>618.26</ele>
        <time>2016-04-29T08:18:57Z</time>
      </trkpt>
      <trkpt lat="43.6143" lon="6.36707">
        <ele>617.78</ele>
        <time>2016-04-29T08:19:00Z</time>
      </trkpt>
      <trkpt lat="43.61426" lon="6.36701">
        <ele>616.34</ele>
        <time>2016-04-29T08:19:09Z</time>
      </trkpt>
      <trkpt lat="43.61423" lon="6.36693">
        <ele>615.38</ele>
        <time>2016-04-29T08:19:16Z</time>
      </trkpt>
      <trkpt lat="43.61417" lon="6.36686">
        <ele>614.9</ele>
        <time>2016-04-29T08:19:32Z</time>
      </trkpt>
      <trkpt lat="43.61412" lon="6.36681">
        <ele>614.9</ele>
        <time>2016-04-29T08:19:38Z</time>
      </trkpt>
      <trkpt lat="43.61404" lon="6.36681">
        <ele>614.9</ele>
        <time>2016-04-29T08:19:43Z</time>
      </trkpt>
      <trkpt lat="43.6139" lon="6.36682">
        <ele>614.9</ele>
        <time>2016-04-29T08:19:54Z</time>
      </trkpt>
      <trkpt lat="43.61375" lon="6.36675">
        <ele>614.42</ele>
        <time>2016-04-29T08:20:07Z</time>
      </trkpt>
      <trkpt lat="43.61373" lon="6.36675">
        <ele>614.42</ele>
        <time>2016-04-29T08:20:09Z</time>
      </trkpt>
      <trkpt lat="43.61369" lon="6.36671">
        <ele>613.46</ele>
        <time>2016-04-29T08:20:15Z</time>
      </trkpt>
      <trkpt lat="43.61358" lon="6.36656">
        <ele>611.06</ele>
        <time>2016-04-29T08:20:31Z</time>
      </trkpt>
      <trkpt lat="43.61352" lon="6.36649">
        <ele>609.13</ele>
        <time>2016-04-29T08:20:39Z</time>
      </trkpt>
      <trkpt lat="43.61339" lon="6.36639">
        <ele>606.73</ele>
        <time>2016-04-29T08:20:52Z</time>
      </trkpt>
      <trkpt lat="43.61334" lon="6.36634">
        <ele>606.25</ele>
        <time>2016-04-29T08:21:05Z</time>
      </trkpt>
      <trkpt lat="43.61335" lon="6.36634">
        <ele>606.73</ele>
        <time>2016-04-29T08:21:19Z</time>
      </trkpt>
      <trkpt lat="43.61335" lon="6.3664">
        <ele>606.73</ele>
        <time>2016-04-29T08:21:30Z</time>
      </trkpt>
      <trkpt lat="43.61335" lon="6.36637">
        <ele>606.73</ele>
        <time>2016-04-29T08:21:41Z</time>
      </trkpt>
      <trkpt lat="43.61334" lon="6.36633">
        <ele>606.73</ele>
        <time>2016-04-29T08:21:44Z</time>
      </trkpt>
      <trkpt lat="43.61331" lon="6.36631">
        <ele>606.73</ele>
        <time>2016-04-29T08:21:57Z</time>
      </trkpt>
      <trkpt lat="43.61331" lon="6.36632">
        <ele>606.73</ele>
        <time>2016-04-29T08:21:58Z</time>
      </trkpt>
      <trkpt lat="43.61332" lon="6.36638">
        <ele>606.73</ele>
        <time>2016-04-29T08:22:15Z</time>
      </trkpt>
      <trkpt lat="43.61333" lon="6.36636">
        <ele>607.21</ele>
        <time>2016-04-29T08:22:33Z</time>
      </trkpt>
      <trkpt lat="43.61331" lon="6.36637">
        <ele>607.21</ele>
        <time>2016-04-29T08:22:57Z</time>
      </trkpt>
      <trkpt lat="43.61331" lon="6.36636">
        <ele>607.21</ele>
        <time>2016-04-29T08:23:16Z</time>
      </trkpt>
      <trkpt lat="43.61332" lon="6.36636">
        <ele>607.21</ele>
        <time>2016-04-29T08:23:33Z</time>
      </trkpt>
      <trkpt lat="43.61333" lon="6.36635">
        <ele>607.21</ele>
        <time>2016-04-29T08:23:40Z</time>
      </trkpt>
      <trkpt lat="43.61331" lon="6.36631">
        <ele>607.21</ele>
        <time>2016-04-29T08:23:47Z</time>
      </trkpt>
      <trkpt lat="43.61328" lon="6.36629">
        <ele>606.73</ele>
        <time>2016-04-29T08:23:50Z</time>
      </trkpt>
      <trkpt lat="43.61316" lon="6.36631">
        <ele>604.81</ele>
        <time>2016-04-29T08:24:03Z</time>
      </trkpt>
      <trkpt lat="43.61311" lon="6.36632">
        <ele>603.85</ele>
        <time>2016-04-29T08:24:09Z</time>
      </trkpt>
      <trkpt lat="43.61304" lon="6.36642">
        <ele>601.92</ele>
        <time>2016-04-29T08:24:22Z</time>
      </trkpt>
      <trkpt lat="43.61302" lon="6.36652">
        <ele>601.44</ele>
        <time>2016-04-29T08:24:33Z</time>
      </trkpt>
      <trkpt lat="43.61302" lon="6.36654">
        <ele>600.96</ele>
        <time>2016-04-29T08:24:35Z</time>
      </trkpt>
      <trkpt lat="43.61303" lon="6.36662">
        <ele>600.48</ele>
        <time>2016-04-29T08:24:41Z</time>
      </trkpt>
      <trkpt lat="43.61303" lon="6.36678">
        <ele>599.52</ele>
        <time>2016-04-29T08:24:52Z</time>
      </trkpt>
      <trkpt lat="43.61296" lon="6.3669">
        <ele>596.64</ele>
        <time>2016-04-29T08:25:05Z</time>
      </trkpt>
      <trkpt lat="43.61292" lon="6.36692">
        <ele>597.6</ele>
        <time>2016-04-29T08:25:10Z</time>
      </trkpt>
      <trkpt lat="43.61291" lon="6.36694">
        <ele>597.6</ele>
        <time>2016-04-29T08:25:12Z</time>
      </trkpt>
      <trkpt lat="43.61282" lon="6.36688">
        <ele>596.15</ele>
        <time>2016-04-29T08:25:20Z</time>
      </trkpt>
      <trkpt lat="43.61278" lon="6.36686">
        <ele>595.67</ele>
        <time>2016-04-29T08:25:24Z</time>
      </trkpt>
      <trkpt lat="43.61276" lon="6.36686">
        <ele>595.19</ele>
        <time>2016-04-29T08:25:26Z</time>
      </trkpt>
      <trkpt lat="43.61264" lon="6.36695">
        <ele>594.23</ele>
        <time>2016-04-29T08:25:39Z</time>
      </trkpt>
      <trkpt lat="43.61257" lon="6.36704">
        <ele>592.79</ele>
        <time>2016-04-29T08:25:52Z</time>
      </trkpt>
      <trkpt lat="43.61252" lon="6.36709">
        <ele>591.35</ele>
        <time>2016-04-29T08:26:03Z</time>
      </trkpt>
      <trkpt lat="43.61243" lon="6.36714">
        <ele>590.39</ele>
        <time>2016-04-29T08:26:17Z</time>
      </trkpt>
      <trkpt lat="43.61236" lon="6.36716">
        <ele>589.43</ele>
        <time>2016-04-29T08:26:29Z</time>
      </trkpt>
      <trkpt lat="43.6123" lon="6.36718">
        <ele>588.95</ele>
        <time>2016-04-29T08:26:35Z</time>
      </trkpt>
      <trkpt lat="43.61224" lon="6.36719">
        <ele>588.46</ele>
        <time>2016-04-29T08:26:42Z</time>
      </trkpt>
      <trkpt lat="43.61222" lon="6.36719">
        <ele>588.46</ele>
        <time>2016-04-29T08:26:45Z</time>
      </trkpt>
      <trkpt lat="43.61209" lon="6.36726">
        <ele>587.02</ele>
        <time>2016-04-29T08:26:59Z</time>
      </trkpt>
      <trkpt lat="43.61197" lon="6.3673">
        <ele>586.54</ele>
        <time>2016-04-29T08:27:09Z</time>
      </trkpt>
      <trkpt lat="43.61192" lon="6.36731">
        <ele>586.06</ele>
        <time>2016-04-29T08:27:12Z</time>
      </trkpt>
      <trkpt lat="43.61178" lon="6.36745">
        <ele>585.1</ele>
        <time>2016-04-29T08:27:26Z</time>
      </trkpt>
      <trkpt lat="43.6117" lon="6.36759">
        <ele>584.14</ele>
        <time>2016-04-29T08:27:37Z</time>
      </trkpt>
      <trkpt lat="43.61163" lon="6.3678">
        <ele>583.18</ele>
        <time>2016-04-29T08:27:51Z</time>
      </trkpt>
      <trkpt lat="43.61159" lon="6.36794">
        <ele>582.7</ele>
        <time>2016-04-29T08:28:02Z</time>
      </trkpt>
      <trkpt lat="43.6116" lon="6.36794">
        <ele>582.7</ele>
        <time>2016-04-29T08:28:23Z</time>
      </trkpt>
      <trkpt lat="43.6116" lon="6.36794">
        <ele>582.7</ele>
        <time>2016-04-29T08:28:46Z</time>
      </trkpt>
      <trkpt lat="43.61154" lon="6.36811">
        <ele>582.22</ele>
        <time>2016-04-29T08:28:56Z</time>
      </trkpt>
      <trkpt lat="43.61151" lon="6.36819">
        <ele>581.73</ele>
        <time>2016-04-29T08:29:01Z</time>
      </trkpt>
      <trkpt lat="43.61153" lon="6.36843">
        <ele>580.77</ele>
        <time>2016-04-29T08:29:13Z</time>
      </trkpt>
      <trkpt lat="43.61154" lon="6.36854">
        <ele>580.29</ele>
        <time>2016-04-29T08:29:18Z</time>
      </trkpt>
      <trkpt lat="43.61153" lon="6.36867">
        <ele>580.29</ele>
        <time>2016-04-29T08:29:25Z</time>
      </trkpt>
      <trkpt lat="43.61151" lon="6.36874">
        <ele>580.29</ele>
        <time>2016-04-29T08:29:29Z</time>
      </trkpt>
      <trkpt lat="43.61149" lon="6.36878">
        <ele>579.81</ele>
        <time>2016-04-29T08:29:32Z</time>
      </trkpt>
      <trkpt lat="43.61148" lon="6.36883">
        <ele>579.81</ele>
        <time>2016-04-29T08:29:35Z</time>
      </trkpt>
      <trkpt lat="43.61151" lon="6.36897">
        <ele>579.33</ele>
        <time>2016-04-29T08:29:42Z</time>
      </trkpt>
      <trkpt lat="43.6115" lon="6.36906">
        <ele>579.33</ele>
        <time>2016-04-29T08:29:48Z</time>
      </trkpt>
      <trkpt lat="43.61145" lon="6.36917">
        <ele>578.85</ele>
        <time>2016-04-29T08:29:56Z</time>
      </trkpt>
      <trkpt lat="43.61143" lon="6.36919">
        <ele>578.85</ele>
        <time>2016-04-29T08:29:58Z</time>
      </trkpt>
      <trkpt lat="43.61135" lon="6.36929">
        <ele>578.85</ele>
        <time>2016-04-29T08:30:07Z</time>
      </trkpt>
      <trkpt lat="43.61128" lon="6.3694">
        <ele>577.89</ele>
        <time>2016-04-29T08:30:20Z</time>
      </trkpt>
      <trkpt lat="43.61122" lon="6.3695">
        <ele>576.45</ele>
        <time>2016-04-29T08:30:32Z</time>
      </trkpt>
      <trkpt lat="43.61113" lon="6.36963">
        <ele>575.97</ele>
        <time>2016-04-29T08:30:46Z</time>
      </trkpt>
      <trkpt lat="43.61105" lon="6.3697">
        <ele>575.01</ele>
        <time>2016-04-29T08:30:58Z</time>
      </trkpt>
      <trkpt lat="43.61102" lon="6.36974">
        <ele>575.01</ele>
        <time>2016-04-29T08:31:02Z</time>
      </trkpt>
      <trkpt lat="43.61091" lon="6.36983">
        <ele>574.53</ele>
        <time>2016-04-29T08:31:18Z</time>
      </trkpt>
      <trkpt lat="43.61093" lon="6.36987">
        <ele>574.53</ele>
        <time>2016-04-29T08:31:36Z</time>
      </trkpt>
      <trkpt lat="43.6109" lon="6.36987">
        <ele>574.53</ele>
        <time>2016-04-29T08:31:56Z</time>
      </trkpt>
      <trkpt lat="43.61085" lon="6.3699">
        <ele>575.97</ele>
        <time>2016-04-29T08:32:07Z</time>
      </trkpt>
      <trkpt lat="43.61088" lon="6.36992">
        <ele>575.97</ele>
        <time>2016-04-29T08:32:24Z</time>
      </trkpt>
      <trkpt lat="43.61089" lon="6.36992">
        <ele>575.49</ele>
        <time>2016-04-29T08:32:32Z</time>
      </trkpt>
      <trkpt lat="43.6109" lon="6.36988">
        <ele>575.49</ele>
        <time>2016-04-29T08:32:36Z</time>
      </trkpt>
      <trkpt lat="43.61088" lon="6.36982">
        <ele>575.97</ele>
        <time>2016-04-29T08:32:40Z</time>
      </trkpt>
      <trkpt lat="43.61086" lon="6.36977">
        <ele>575.97</ele>
        <time>2016-04-29T08:32:44Z</time>
      </trkpt>
      <trkpt lat="43.61084" lon="6.36974">
        <ele>576.45</ele>
        <time>2016-04-29T08:32:47Z</time>
      </trkpt>
      <trkpt lat="43.61074" lon="6.36958">
        <ele>576.93</ele>
        <time>2016-04-29T08:33:03Z</time>
      </trkpt>
      <trkpt lat="43.61066" lon="6.36956">
        <ele>576.45</ele>
        <time>2016-04-29T08:33:17Z</time>
      </trkpt>
      <trkpt lat="43.61066" lon="6.36957">
        <ele>576.93</ele>
        <time>2016-04-29T08:33:27Z</time>
      </trkpt>
      <trkpt lat="43.61072" lon="6.36956">
        <ele>577.41</ele>
        <time>2016-04-29T08:33:33Z</time>
      </trkpt>
      <trkpt lat="43.61071" lon="6.36952">
        <ele>577.41</ele>
        <time>2016-04-29T08:33:36Z</time>
      </trkpt>
      <trkpt lat="43.61068" lon="6.36948">
        <ele>577.41</ele>
        <time>2016-04-29T08:33:40Z</time>
      </trkpt>
      <trkpt lat="43.6106" lon="6.36937">
        <ele>579.33</ele>
        <time>2016-04-29T08:33:53Z</time>
      </trkpt>
      <trkpt lat="43.61059" lon="6.36936">
        <ele>578.85</ele>
        <time>2016-04-29T08:33:54Z</time>
      </trkpt>
      <trkpt lat="43.61056" lon="6.36936">
        <ele>579.33</ele>
        <time>2016-04-29T08:33:56Z</time>
      </trkpt>
      <trkpt lat="43.61047" lon="6.3694">
        <ele>578.37</ele>
        <time>2016-04-29T08:34:08Z</time>
      </trkpt>
      <trkpt lat="43.61046" lon="6.36943">
        <ele>577.41</ele>
        <time>2016-04-29T08:34:23Z</time>
      </trkpt>
      <trkpt lat="43.61045" lon="6.36945">
        <ele>575.97</ele>
        <time>2016-04-29T08:34:35Z</time>
      </trkpt>
      <trkpt lat="43.61047" lon="6.3695">
        <ele>576.93</ele>
        <time>2016-04-29T08:34:50Z</time>
      </trkpt>
      <trkpt lat="43.61048" lon="6.36949">
        <ele>577.89</ele>
        <time>2016-04-29T08:35:03Z</time>
      </trkpt>
      <trkpt lat="43.61048" lon="6.36946">
        <ele>578.37</ele>
        <time>2016-04-29T08:35:10Z</time>
      </trkpt>
      <trkpt lat="43.61048" lon="6.36944">
        <ele>578.85</ele>
        <time>2016-04-29T08:35:20Z</time>
      </trkpt>
      <trkpt lat="43.61052" lon="6.36939">
        <ele>579.33</ele>
        <time>2016-04-29T08:35:33Z</time>
      </trkpt>
      <trkpt lat="43.61053" lon="6.36937">
        <ele>578.85</ele>
        <time>2016-04-29T08:35:50Z</time>
      </trkpt>
      <trkpt lat="43.61055" lon="6.36938">
        <ele>578.85</ele>
        <time>2016-04-29T08:35:52Z</time>
      </trkpt>
      <trkpt lat="43.61057" lon="6.36941">
        <ele>578.85</ele>
        <time>2016-04-29T08:35:54Z</time>
      </trkpt>
      <trkpt lat="43.61062" lon="6.36949">
        <ele>577.41</ele>
        <time>2016-04-29T08:36:01Z</time>
      </trkpt>
      <trkpt lat="43.61068" lon="6.36954">
        <ele>580.29</ele>
        <time>2016-04-29T08:36:07Z</time>
      </trkpt>
      <trkpt lat="43.61069" lon="6.36956">
        <ele>574.53</ele>
        <time>2016-04-29T08:36:08Z</time>
      </trkpt>
      <trkpt lat="43.6107" lon="6.36957">
        <ele>580.77</ele>
        <time>2016-04-29T08:36:09Z</time>
      </trkpt>
      <trkpt lat="43.61071" lon="6.36958">
        <ele>576.93</ele>
        <time>2016-04-29T08:36:10Z</time>
      </trkpt>
      <trkpt lat="43.6108" lon="6.36974">
        <ele>576.45</ele>
        <time>2016-04-29T08:36:21Z</time>
      </trkpt>
      <trkpt lat="43.61083" lon="6.36984">
        <ele>575.97</ele>
        <time>2016-04-29T08:36:35Z</time>
      </trkpt>
      <trkpt lat="43.61084" lon="6.36988">
        <ele>575.01</ele>
        <time>2016-04-29T08:36:42Z</time>
      </trkpt>
      <trkpt lat="43.61082" lon="6.36991">
        <ele>575.97</ele>
        <time>2016-04-29T08:36:48Z</time>
      </trkpt>
      <trkpt lat="43.61078" lon="6.37">
        <ele>574.53</ele>
        <time>2016-04-29T08:37:02Z</time>
      </trkpt>
      <trkpt lat="43.61066" lon="6.37008">
        <ele>576.45</ele>
        <time>2016-04-29T08:37:17Z</time>
      </trkpt>
      <trkpt lat="43.61062" lon="6.37011">
        <ele>577.41</ele>
        <time>2016-04-29T08:37:22Z</time>
      </trkpt>
      <trkpt lat="43.61055" lon="6.37016">
        <ele>577.89</ele>
        <time>2016-04-29T08:37:29Z</time>
      </trkpt>
      <trkpt lat="43.61047" lon="6.37022">
        <ele>580.77</ele>
        <time>2016-04-29T08:37:41Z</time>
      </trkpt>
      <trkpt lat="43.61046" lon="6.37022">
        <ele>580.77</ele>
        <time>2016-04-29T08:37:42Z</time>
      </trkpt>
      <trkpt lat="43.61039" lon="6.37029">
        <ele>582.7</ele>
        <time>2016-04-29T08:37:54Z</time>
      </trkpt>
      <trkpt lat="43.61033" lon="6.37034">
        <ele>584.62</ele>
        <time>2016-04-29T08:38:06Z</time>
      </trkpt>
      <trkpt lat="43.61025" lon="6.37042">
        <ele>587.5</ele>
        <time>2016-04-29T08:38:21Z</time>
      </trkpt>
      <trkpt lat="43.61021" lon="6.37045">
        <ele>590.39</ele>
        <time>2016-04-29T08:38:35Z</time>
      </trkpt>
      <trkpt lat="43.61019" lon="6.37044">
        <ele>592.79</ele>
        <time>2016-04-29T08:38:46Z</time>
      </trkpt>
      <trkpt lat="43.61017" lon="6.37043">
        <ele>594.23</ele>
        <time>2016-04-29T08:38:58Z</time>
      </trkpt>
      <trkpt lat="43.61006" lon="6.37036">
        <ele>596.15</ele>
        <time>2016-04-29T08:39:11Z</time>
      </trkpt>
      <trkpt lat="43.61002" lon="6.37035">
        <ele>597.12</ele>
        <time>2016-04-29T08:39:16Z</time>
      </trkpt>
      <trkpt lat="43.60994" lon="6.37034">
        <ele>599.52</ele>
        <time>2016-04-29T08:39:27Z</time>
      </trkpt>
      <trkpt lat="43.60988" lon="6.37039">
        <ele>602.4</ele>
        <time>2016-04-29T08:39:39Z</time>
      </trkpt>
      <trkpt lat="43.60983" lon="6.37044">
        <ele>604.33</ele>
        <time>2016-04-29T08:39:50Z</time>
      </trkpt>
      <trkpt lat="43.60975" lon="6.37052">
        <ele>607.21</ele>
        <time>2016-04-29T08:40:03Z</time>
      </trkpt>
      <trkpt lat="43.60967" lon="6.37062">
        <ele>610.09</ele>
        <time>2016-04-29T08:40:17Z</time>
      </trkpt>
      <trkpt lat="43.60964" lon="6.37071">
        <ele>612.02</ele>
        <time>2016-04-29T08:40:29Z</time>
      </trkpt>
      <trkpt lat="43.60954" lon="6.37082">
        <ele>614.42</ele>
        <time>2016-04-29T08:40:44Z</time>
      </trkpt>
      <trkpt lat="43.60947" lon="6.37088">
        <ele>615.86</ele>
        <time>2016-04-29T08:40:53Z</time>
      </trkpt>
      <trkpt lat="43.60945" lon="6.37091">
        <ele>617.3</ele>
        <time>2016-04-29T08:40:57Z</time>
      </trkpt>
      <trkpt lat="43.60935" lon="6.371">
        <ele>619.23</ele>
        <time>2016-04-29T08:41:12Z</time>
      </trkpt>
      <trkpt lat="43.60939" lon="6.37106">
        <ele>619.71</ele>
        <time>2016-04-29T08:41:41Z</time>
      </trkpt>
      <trkpt lat="43.60934" lon="6.37106">
        <ele>620.19</ele>
        <time>2016-04-29T08:42:06Z</time>
      </trkpt>
      <trkpt lat="43.60932" lon="6.37106">
        <ele>621.15</ele>
        <time>2016-04-29T08:42:08Z</time>
      </trkpt>
      <trkpt lat="43.60925" lon="6.37114">
        <ele>622.59</ele>
        <time>2016-04-29T08:42:21Z</time>
      </trkpt>
      <trkpt lat="43.60915" lon="6.37124">
        <ele>624.03</ele>
        <time>2016-04-29T08:42:35Z</time>
      </trkpt>
      <trkpt lat="43.60911" lon="6.3713">
        <ele>625.47</ele>
        <time>2016-04-29T08:42:42Z</time>
      </trkpt>
      <trkpt lat="43.60898" lon="6.37141">
        <ele>626.92</ele>
        <time>2016-04-29T08:42:58Z</time>
      </trkpt>
      <trkpt lat="43.60883" lon="6.37152">
        <ele>628.84</ele>
        <time>2016-04-29T08:43:14Z</time>
      </trkpt>
      <trkpt lat="43.60878" lon="6.37159">
        <ele>629.32</ele>
        <time>2016-04-29T08:43:21Z</time>
      </trkpt>
      <trkpt lat="43.60874" lon="6.37161">
        <ele>629.8</ele>
        <time>2016-04-29T08:43:26Z</time>
      </trkpt>
      <trkpt lat="43.60872" lon="6.37162">
        <ele>629.8</ele>
        <time>2016-04-29T08:43:28Z</time>
      </trkpt>
      <trkpt lat="43.60862" lon="6.37176">
        <ele>630.76</ele>
        <time>2016-04-29T08:43:39Z</time>
      </trkpt>
      <trkpt lat="43.6086" lon="6.37182">
        <ele>630.76</ele>
        <time>2016-04-29T08:43:44Z</time>
      </trkpt>
      <trkpt lat="43.60845" lon="6.37198">
        <ele>631.72</ele>
        <time>2016-04-29T08:43:59Z</time>
      </trkpt>
      <trkpt lat="43.60844" lon="6.37199">
        <ele>631.72</ele>
        <time>2016-04-29T08:44:00Z</time>
      </trkpt>
      <trkpt lat="43.60839" lon="6.37208">
        <ele>631.72</ele>
        <time>2016-04-29T08:44:12Z</time>
      </trkpt>
      <trkpt lat="43.60837" lon="6.37209">
        <ele>631.72</ele>
        <time>2016-04-29T08:44:14Z</time>
      </trkpt>
      <trkpt lat="43.60831" lon="6.37213">
        <ele>632.2</ele>
        <time>2016-04-29T08:44:21Z</time>
      </trkpt>
      <trkpt lat="43.60827" lon="6.37222">
        <ele>632.2</ele>
        <time>2016-04-29T08:44:28Z</time>
      </trkpt>
      <trkpt lat="43.60821" lon="6.37235">
        <ele>632.68</ele>
        <time>2016-04-29T08:44:38Z</time>
      </trkpt>
      <trkpt lat="43.6081" lon="6.37249">
        <ele>633.17</ele>
        <time>2016-04-29T08:44:51Z</time>
      </trkpt>
      <trkpt lat="43.60808" lon="6.37252">
        <ele>633.17</ele>
        <time>2016-04-29T08:44:54Z</time>
      </trkpt>
      <trkpt lat="43.60807" lon="6.37261">
        <ele>633.17</ele>
        <time>2016-04-29T08:44:59Z</time>
      </trkpt>
      <trkpt lat="43.60797" lon="6.37282">
        <ele>632.68</ele>
        <time>2016-04-29T08:45:13Z</time>
      </trkpt>
      <trkpt lat="43.6079" lon="6.37295">
        <ele>632.2</ele>
        <time>2016-04-29T08:45:26Z</time>
      </trkpt>
      <trkpt lat="43.60784" lon="6.37303">
        <ele>631.72</ele>
        <time>2016-04-29T08:45:32Z</time>
      </trkpt>
      <trkpt lat="43.60773" lon="6.37324">
        <ele>631.72</ele>
        <time>2016-04-29T08:45:46Z</time>
      </trkpt>
      <trkpt lat="43.60761" lon="6.37339">
        <ele>631.24</ele>
        <time>2016-04-29T08:45:59Z</time>
      </trkpt>
      <trkpt lat="43.60756" lon="6.37343">
        <ele>631.24</ele>
        <time>2016-04-29T08:46:04Z</time>
      </trkpt>
      <trkpt lat="43.60754" lon="6.37345">
        <ele>631.24</ele>
        <time>2016-04-29T08:46:06Z</time>
      </trkpt>
      <trkpt lat="43.60742" lon="6.37359">
        <ele>631.24</ele>
        <time>2016-04-29T08:46:19Z</time>
      </trkpt>
      <trkpt lat="43.60733" lon="6.37366">
        <ele>631.24</ele>
        <time>2016-04-29T08:46:25Z</time>
      </trkpt>
      <trkpt lat="43.60727" lon="6.37376">
        <ele>630.76</ele>
        <time>2016-04-29T08:46:33Z</time>
      </trkpt>
      <trkpt lat="43.60717" lon="6.37393">
        <ele>629.32</ele>
        <time>2016-04-29T08:46:46Z</time>
      </trkpt>
      <trkpt lat="43.6071" lon="6.37415">
        <ele>628.84</ele>
        <time>2016-04-29T08:47:02Z</time>
      </trkpt>
      <trkpt lat="43.60703" lon="6.37437">
        <ele>628.84</ele>
        <time>2016-04-29T08:47:17Z</time>
      </trkpt>
      <trkpt lat="43.607" lon="6.37454">
        <ele>629.32</ele>
        <time>2016-04-29T08:47:28Z</time>
      </trkpt>
      <trkpt lat="43.607" lon="6.37458">
        <ele>629.32</ele>
        <time>2016-04-29T08:47:30Z</time>
      </trkpt>
      <trkpt lat="43.60699" lon="6.37467">
        <ele>629.8</ele>
        <time>2016-04-29T08:47:35Z</time>
      </trkpt>
      <trkpt lat="43.60697" lon="6.37477">
        <ele>629.8</ele>
        <time>2016-04-29T08:47:41Z</time>
      </trkpt>
      <trkpt lat="43.60693" lon="6.37497">
        <ele>630.76</ele>
        <time>2016-04-29T08:47:54Z</time>
      </trkpt>
      <trkpt lat="43.60691" lon="6.37506">
        <ele>630.76</ele>
        <time>2016-04-29T08:48:00Z</time>
      </trkpt>
      <trkpt lat="43.60691" lon="6.37533">
        <ele>630.76</ele>
        <time>2016-04-29T08:48:15Z</time>
      </trkpt>
      <trkpt lat="43.60691" lon="6.37537">
        <ele>631.24</ele>
        <time>2016-04-29T08:48:32Z</time>
      </trkpt>
      <trkpt lat="43.6069" lon="6.37544">
        <ele>631.24</ele>
        <time>2016-04-29T08:48:37Z</time>
      </trkpt>
      <trkpt lat="43.60693" lon="6.37555">
        <ele>631.24</ele>
        <time>2016-04-29T08:48:42Z</time>
      </trkpt>
      <trkpt lat="43.60694" lon="6.37564">
        <ele>630.76</ele>
        <time>2016-04-29T08:48:46Z</time>
      </trkpt>
      <trkpt lat="43.60694" lon="6.37577">
        <ele>630.28</ele>
        <time>2016-04-29T08:48:52Z</time>
      </trkpt>
      <trkpt lat="43.60695" lon="6.37587">
        <ele>630.28</ele>
        <time>2016-04-29T08:48:57Z</time>
      </trkpt>
      <trkpt lat="43.60695" lon="6.37591">
        <ele>629.8</ele>
        <time>2016-04-29T08:48:59Z</time>
      </trkpt>
      <trkpt lat="43.60695" lon="6.37611">
        <ele>629.32</ele>
        <time>2016-04-29T08:49:10Z</time>
      </trkpt>
      <trkpt lat="43.607" lon="6.3764">
        <ele>628.36</ele>
        <time>2016-04-29T08:49:25Z</time>
      </trkpt>
      <trkpt lat="43.60701" lon="6.37645">
        <ele>627.88</ele>
        <time>2016-04-29T08:49:28Z</time>
      </trkpt>
      <trkpt lat="43.60703" lon="6.37659">
        <ele>627.88</ele>
        <time>2016-04-29T08:49:37Z</time>
      </trkpt>
      <trkpt lat="43.60703" lon="6.37663">
        <ele>627.4</ele>
        <time>2016-04-29T08:49:42Z</time>
      </trkpt>
      <trkpt lat="43.60704" lon="6.37674">
        <ele>626.92</ele>
        <time>2016-04-29T08:49:47Z</time>
      </trkpt>
      <trkpt lat="43.60705" lon="6.37681">
        <ele>626.92</ele>
        <time>2016-04-29T08:49:51Z</time>
      </trkpt>
      <trkpt lat="43.60707" lon="6.37706">
        <ele>625.47</ele>
        <time>2016-04-29T08:50:03Z</time>
      </trkpt>
      <trkpt lat="43.60709" lon="6.37717">
        <ele>626.44</ele>
        <time>2016-04-29T08:50:08Z</time>
      </trkpt>
      <trkpt lat="43.60709" lon="6.37729">
        <ele>625.47</ele>
        <time>2016-04-29T08:50:14Z</time>
      </trkpt>
      <trkpt lat="43.60711" lon="6.37746">
        <ele>624.99</ele>
        <time>2016-04-29T08:50:23Z</time>
      </trkpt>
      <trkpt lat="43.60711" lon="6.37759">
        <ele>625.47</ele>
        <time>2016-04-29T08:50:30Z</time>
      </trkpt>
      <trkpt lat="43.60712" lon="6.37774">
        <ele>625.47</ele>
        <time>2016-04-29T08:50:37Z</time>
      </trkpt>
      <trkpt lat="43.60713" lon="6.37778">
        <ele>625.47</ele>
        <time>2016-04-29T08:50:39Z</time>
      </trkpt>
      <trkpt lat="43.60718" lon="6.3781">
        <ele>626.44</ele>
        <time>2016-04-29T08:50:55Z</time>
      </trkpt>
      <trkpt lat="43.60722" lon="6.37837">
        <ele>626.92</ele>
        <time>2016-04-29T08:51:10Z</time>
      </trkpt>
      <trkpt lat="43.60723" lon="6.37865">
        <ele>627.4</ele>
        <time>2016-04-29T08:51:24Z</time>
      </trkpt>
      <trkpt lat="43.60724" lon="6.37877">
        <ele>627.88</ele>
        <time>2016-04-29T08:51:29Z</time>
      </trkpt>
      <trkpt lat="43.60724" lon="6.37892">
        <ele>627.88</ele>
        <time>2016-04-29T08:51:44Z</time>
      </trkpt>
      <trkpt lat="43.60724" lon="6.37893">
        <ele>627.88</ele>
        <time>2016-04-29T08:52:00Z</time>
      </trkpt>
      <trkpt lat="43.60724" lon="6.37895">
        <ele>628.36</ele>
        <time>2016-04-29T08:52:05Z</time>
      </trkpt>
      <trkpt lat="43.60724" lon="6.37916">
        <ele>627.88</ele>
        <time>2016-04-29T08:52:17Z</time>
      </trkpt>
      <trkpt lat="43.60729" lon="6.37942">
        <ele>627.4</ele>
        <time>2016-04-29T08:52:31Z</time>
      </trkpt>
      <trkpt lat="43.6073" lon="6.37959">
        <ele>626.44</ele>
        <time>2016-04-29T08:52:40Z</time>
      </trkpt>
      <trkpt lat="43.60731" lon="6.37969">
        <ele>626.44</ele>
        <time>2016-04-29T08:52:45Z</time>
      </trkpt>
      <trkpt lat="43.60734" lon="6.37984">
        <ele>625.96</ele>
        <time>2016-04-29T08:52:51Z</time>
      </trkpt>
      <trkpt lat="43.60738" lon="6.38004">
        <ele>625.47</ele>
        <time>2016-04-29T08:52:57Z</time>
      </trkpt>
      <trkpt lat="43.6074" lon="6.3801">
        <ele>624.99</ele>
        <time>2016-04-29T08:53:08Z</time>
      </trkpt>
      <trkpt lat="43.60741" lon="6.38012">
        <ele>624.99</ele>
        <time>2016-04-29T08:53:10Z</time>
      </trkpt>
      <trkpt lat="43.60742" lon="6.38015">
        <ele>624.51</ele>
        <time>2016-04-29T08:53:12Z</time>
      </trkpt>
      <trkpt lat="43.60753" lon="6.38045">
        <ele>624.03</ele>
        <time>2016-04-29T08:53:23Z</time>
      </trkpt>
      <trkpt lat="43.60757" lon="6.38052">
        <ele>623.07</ele>
        <time>2016-04-29T08:53:33Z</time>
      </trkpt>
      <trkpt lat="43.60758" lon="6.38052">
        <ele>622.11</ele>
        <time>2016-04-29T08:53:36Z</time>
      </trkpt>
      <trkpt lat="43.60765" lon="6.3806">
        <ele>622.11</ele>
        <time>2016-04-29T08:53:40Z</time>
      </trkpt>
      <trkpt lat="43.6077" lon="6.38067">
        <ele>621.63</ele>
        <time>2016-04-29T08:53:43Z</time>
      </trkpt>
      <trkpt lat="43.60777" lon="6.3808">
        <ele>620.67</ele>
        <time>2016-04-29T08:53:54Z</time>
      </trkpt>
      <trkpt lat="43.6079" lon="6.38095">
        <ele>619.71</ele>
        <time>2016-04-29T08:54:04Z</time>
      </trkpt>
      <trkpt lat="43.60793" lon="6.38111">
        <ele>618.26</ele>
        <time>2016-04-29T08:54:16Z</time>
      </trkpt>
      <trkpt lat="43.60794" lon="6.38116">
        <ele>617.3</ele>
        <time>2016-04-29T08:54:21Z</time>
      </trkpt>
      <trkpt lat="43.60792" lon="6.38141">
        <ele>615.86</ele>
        <time>2016-04-29T08:54:29Z</time>
      </trkpt>
      <trkpt lat="43.60792" lon="6.38154">
        <ele>615.38</ele>
        <time>2016-04-29T08:54:38Z</time>
      </trkpt>
      <trkpt lat="43.6079" lon="6.38158">
        <ele>614.9</ele>
        <time>2016-04-29T08:54:41Z</time>
      </trkpt>
      <trkpt lat="43.6079" lon="6.38161">
        <ele>614.42</ele>
        <time>2016-04-29T08:54:43Z</time>
      </trkpt>
      <trkpt lat="43.6079" lon="6.3817">
        <ele>614.42</ele>
        <time>2016-04-29T08:54:47Z</time>
      </trkpt>
      <trkpt lat="43.60789" lon="6.38176">
        <ele>613.94</ele>
        <time>2016-04-29T08:54:49Z</time>
      </trkpt>
      <trkpt lat="43.60787" lon="6.38196">
        <ele>612.98</ele>
        <time>2016-04-29T08:55:00Z</time>
      </trkpt>
      <trkpt lat="43.60775" lon="6.38213">
        <ele>611.06</ele>
        <time>2016-04-29T08:55:15Z</time>
      </trkpt>
      <trkpt lat="43.60774" lon="6.38216">
        <ele>611.06</ele>
        <time>2016-04-29T08:55:17Z</time>
      </trkpt>
      <trkpt lat="43.60771" lon="6.38229">
        <ele>610.57</ele>
        <time>2016-04-29T08:55:30Z</time>
      </trkpt>
      <trkpt lat="43.60772" lon="6.38232">
        <ele>610.57</ele>
        <time>2016-04-29T08:55:42Z</time>
      </trkpt>
      <trkpt lat="43.60769" lon="6.38234">
        <ele>610.09</ele>
        <time>2016-04-29T08:55:53Z</time>
      </trkpt>
      <trkpt lat="43.60767" lon="6.38238">
        <ele>610.09</ele>
        <time>2016-04-29T08:56:07Z</time>
      </trkpt>
      <trkpt lat="43.60768" lon="6.38243">
        <ele>609.61</ele>
        <time>2016-04-29T08:56:24Z</time>
      </trkpt>
      <trkpt lat="43.60768" lon="6.38244">
        <ele>609.61</ele>
        <time>2016-04-29T08:56:26Z</time>
      </trkpt>
      <trkpt lat="43.60771" lon="6.38245">
        <ele>609.13</ele>
        <time>2016-04-29T08:56:29Z</time>
      </trkpt>
      <trkpt lat="43.60774" lon="6.38248">
        <ele>609.61</ele>
        <time>2016-04-29T08:56:32Z</time>
      </trkpt>
      <trkpt lat="43.60777" lon="6.38248">
        <ele>610.09</ele>
        <time>2016-04-29T08:56:48Z</time>
      </trkpt>
      <trkpt lat="43.60774" lon="6.38247">
        <ele>609.61</ele>
        <time>2016-04-29T08:56:51Z</time>
      </trkpt>
      <trkpt lat="43.60769" lon="6.38251">
        <ele>608.17</ele>
        <time>2016-04-29T08:56:57Z</time>
      </trkpt>
      <trkpt lat="43.60768" lon="6.38253">
        <ele>608.17</ele>
        <time>2016-04-29T08:56:59Z</time>
      </trkpt>
      <trkpt lat="43.6076" lon="6.38252">
        <ele>607.69</ele>
        <time>2016-04-29T08:57:10Z</time>
      </trkpt>
      <trkpt lat="43.60757" lon="6.38251">
        <ele>607.21</ele>
        <time>2016-04-29T08:57:18Z</time>
      </trkpt>
      <trkpt lat="43.60762" lon="6.38258">
        <ele>607.21</ele>
        <time>2016-04-29T08:57:25Z</time>
      </trkpt>
      <trkpt lat="43.60762" lon="6.38279">
        <ele>605.77</ele>
        <time>2016-04-29T08:57:40Z</time>
      </trkpt>
      <trkpt lat="43.60762" lon="6.38278">
        <ele>605.77</ele>
        <time>2016-04-29T08:57:46Z</time>
      </trkpt>
      <trkpt lat="43.60765" lon="6.38294">
        <ele>603.36</ele>
        <time>2016-04-29T08:58:00Z</time>
      </trkpt>
      <trkpt lat="43.60765" lon="6.38297">
        <ele>603.36</ele>
        <time>2016-04-29T08:58:13Z</time>
      </trkpt>
      <trkpt lat="43.60766" lon="6.38297">
        <ele>603.36</ele>
        <time>2016-04-29T08:58:42Z</time>
      </trkpt>
      <trkpt lat="43.60766" lon="6.38298">
        <ele>603.36</ele>
        <time>2016-04-29T08:59:09Z</time>
      </trkpt>
      <trkpt lat="43.60765" lon="6.38291">
        <ele>604.81</ele>
        <time>2016-04-29T08:59:24Z</time>
      </trkpt>
      <trkpt lat="43.60765" lon="6.3829">
        <ele>605.29</ele>
        <time>2016-04-29T08:59:25Z</time>
      </trkpt>
      <trkpt lat="43.60765" lon="6.38285">
        <ele>605.29</ele>
        <time>2016-04-29T08:59:28Z</time>
      </trkpt>
      <trkpt lat="43.60763" lon="6.38283">
        <ele>604.81</ele>
        <time>2016-04-29T08:59:30Z</time>
      </trkpt>
      <trkpt lat="43.60752" lon="6.3828">
        <ele>601.92</ele>
        <time>2016-04-29T08:59:44Z</time>
      </trkpt>
      <trkpt lat="43.60749" lon="6.38284">
        <ele>600.48</ele>
        <time>2016-04-29T08:59:57Z</time>
      </trkpt>
      <trkpt lat="43.60747" lon="6.38287">
        <ele>599.52</ele>
        <time>2016-04-29T09:00:14Z</time>
      </trkpt>
      <trkpt lat="43.60747" lon="6.38289">
        <ele>599.04</ele>
        <time>2016-04-29T09:00:20Z</time>
      </trkpt>
      <trkpt lat="43.60742" lon="6.38292">
        <ele>596.64</ele>
        <time>2016-04-29T09:00:33Z</time>
      </trkpt>
      <trkpt lat="43.60736" lon="6.38296">
        <ele>594.71</ele>
        <time>2016-04-29T09:00:50Z</time>
      </trkpt>
      <trkpt lat="43.60735" lon="6.38296">
        <ele>594.23</ele>
        <time>2016-04-29T09:00:51Z</time>
      </trkpt>
      <trkpt lat="43.60723" lon="6.38294">
        <ele>592.79</ele>
        <time>2016-04-29T09:01:04Z</time>
      </trkpt>
      <trkpt lat="43.60723" lon="6.38294">
        <ele>592.31</ele>
        <time>2016-04-29T09:01:07Z</time>
      </trkpt>
      <trkpt lat="43.6072" lon="6.38283">
        <ele>590.87</ele>
        <time>2016-04-29T09:01:19Z</time>
      </trkpt>
      <trkpt lat="43.60716" lon="6.38287">
        <ele>589.43</ele>
        <time>2016-04-29T09:01:26Z</time>
      </trkpt>
      <trkpt lat="43.60706" lon="6.38294">
        <ele>587.5</ele>
        <time>2016-04-29T09:01:42Z</time>
      </trkpt>
      <trkpt lat="43.60705" lon="6.38302">
        <ele>587.02</ele>
        <time>2016-04-29T09:01:56Z</time>
      </trkpt>
      <trkpt lat="43.60702" lon="6.38304">
        <ele>587.5</ele>
        <time>2016-04-29T09:02:10Z</time>
      </trkpt>
      <trkpt lat="43.60699" lon="6.3829">
        <ele>586.54</ele>
        <time>2016-04-29T09:02:25Z</time>
      </trkpt>
      <trkpt lat="43.60696" lon="6.38287">
        <ele>586.54</ele>
        <time>2016-04-29T09:02:42Z</time>
      </trkpt>
      <trkpt lat="43.60697" lon="6.38296">
        <ele>586.54</ele>
        <time>2016-04-29T09:02:55Z</time>
      </trkpt>
      <trkpt lat="43.60704" lon="6.38295">
        <ele>587.02</ele>
        <time>2016-04-29T09:03:09Z</time>
      </trkpt>
      <trkpt lat="43.60704" lon="6.38296">
        <ele>587.5</ele>
        <time>2016-04-29T09:03:34Z</time>
      </trkpt>
      <trkpt lat="43.60702" lon="6.38293">
        <ele>587.5</ele>
        <time>2016-04-29T09:04:05Z</time>
      </trkpt>
      <trkpt lat="43.60702" lon="6.38293">
        <ele>588.95</ele>
        <time>2016-04-29T09:04:25Z</time>
      </trkpt>
      <trkpt lat="43.60702" lon="6.3831">
        <ele>592.79</ele>
        <time>2016-04-29T09:04:49Z</time>
      </trkpt>
      <trkpt lat="43.60698" lon="6.38284">
        <ele>588.46</ele>
        <time>2016-04-29T09:06:25Z</time>
      </trkpt>
      <trkpt lat="43.607" lon="6.3829">
        <ele>588.46</ele>
        <time>2016-04-29T09:06:41Z</time>
      </trkpt>
      <trkpt lat="43.607" lon="6.3829">
        <ele>588.46</ele>
        <time>2016-04-29T09:06:42Z</time>
      </trkpt>
      <trkpt lat="43.60699" lon="6.38295">
        <ele>587.98</ele>
        <time>2016-04-29T09:06:46Z</time>
      </trkpt>
      <trkpt lat="43.60707" lon="6.38318">
        <ele>587.98</ele>
        <time>2016-04-29T09:06:58Z</time>
      </trkpt>
      <trkpt lat="43.60702" lon="6.38313">
        <ele>587.98</ele>
        <time>2016-04-29T09:07:04Z</time>
      </trkpt>
      <trkpt lat="43.60688" lon="6.38296">
        <ele>586.54</ele>
        <time>2016-04-29T09:07:18Z</time>
      </trkpt>
      <trkpt lat="43.60667" lon="6.3828">
        <ele>584.62</ele>
        <time>2016-04-29T09:07:34Z</time>
      </trkpt>
      <trkpt lat="43.6065" lon="6.38257">
        <ele>582.22</ele>
        <time>2016-04-29T09:07:51Z</time>
      </trkpt>
      <trkpt lat="43.60646" lon="6.38253">
        <ele>582.22</ele>
        <time>2016-04-29T09:07:54Z</time>
      </trkpt>
      <trkpt lat="43.60643" lon="6.38249">
        <ele>581.73</ele>
        <time>2016-04-29T09:07:58Z</time>
      </trkpt>
      <trkpt lat="43.60638" lon="6.38242">
        <ele>581.25</ele>
        <time>2016-04-29T09:08:03Z</time>
      </trkpt>
      <trkpt lat="43.60635" lon="6.38238">
        <ele>581.25</ele>
        <time>2016-04-29T09:08:06Z</time>
      </trkpt>
      <trkpt lat="43.60611" lon="6.38231">
        <ele>577.89</ele>
        <time>2016-04-29T09:08:21Z</time>
      </trkpt>
      <trkpt lat="43.60603" lon="6.38237">
        <ele>575.97</ele>
        <time>2016-04-29T09:08:38Z</time>
      </trkpt>
      <trkpt lat="43.60595" lon="6.38234">
        <ele>573.56</ele>
        <time>2016-04-29T09:08:45Z</time>
      </trkpt>
      <trkpt lat="43.60588" lon="6.3824">
        <ele>573.56</ele>
        <time>2016-04-29T09:08:48Z</time>
      </trkpt>
      <trkpt lat="43.60581" lon="6.38242">
        <ele>573.08</ele>
        <time>2016-04-29T09:08:52Z</time>
      </trkpt>
      <trkpt lat="43.60578" lon="6.38245">
        <ele>573.56</ele>
        <time>2016-04-29T09:08:55Z</time>
      </trkpt>
      <trkpt lat="43.60575" lon="6.38251">
        <ele>573.56</ele>
        <time>2016-04-29T09:09:07Z</time>
      </trkpt>
      <trkpt lat="43.60577" lon="6.38252">
        <ele>574.04</ele>
        <time>2016-04-29T09:09:24Z</time>
      </trkpt>
      <trkpt lat="43.60576" lon="6.38253">
        <ele>574.04</ele>
        <time>2016-04-29T09:09:40Z</time>
      </trkpt>
      <trkpt lat="43.60577" lon="6.38255">
        <ele>573.08</ele>
        <time>2016-04-29T09:09:55Z</time>
      </trkpt>
    </trkseg>
  </trk>
</gpx>